PWSweather.com
Personal Weather Stations
Station Observations
DL5ARK
SonnebergDE

SonnebergDE

Lat: 50.34904861, Lon: 11.18112087

Elevation: 1214

Station Type: Selfmade

http://www.sumbarg.de

High Low Average
Temperature 51.8°F11.0°C 47.3°F8.5°C 49.3°F9.6°C
Dew Point 55.1°F12.8°C 50.9°F10.5°C 53.2°F11.8°C
Winds 9.0 mph 14.5 kmh Calm Calm 2.0 mph W3.2 kmh W
Wind Gusts 9.0 mph14.5 kmh -- 2.0 mph3.2 kmh
Humidity 94% 87% 91%
Pressure 29.59 in1002.0 mb 29.51 in999.3 mb -
Precipitation 0.64 in16.3 mm - -
Hour Temp Dew Point Humidity Winds Wind Gusts Pressure Precip Precip Rate Daily Precip Total
12:00 AM 50.3°F10.2°C 54.7°F12.6°C 94% 3.0 mph SW4.8 kmh SW 3.2 mph5.1 kmh 29.56 in1001.0 mb 0.00 in0.0 mm 0.00 in0.0 mm 0.00 in0.0 mm
12:03 AM 50.3°F10.2°C 54.5°F12.5°C 94% 2.4 mph W3.9 kmh W 2.4 mph3.9 kmh 29.56 in1001.0 mb 0.00 in0.0 mm 0.00 in0.0 mm 0.00 in0.0 mm
12:09 AM 50.2°F10.1°C 54.3°F12.4°C 94% 3.6 mph SW5.8 kmh SW 3.6 mph5.8 kmh 29.56 in1001.0 mb 0.00 in0.0 mm 0.00 in0.0 mm 0.00 in0.0 mm
12:12 AM 50.3°F10.2°C 54.3°F12.4°C 94% 4.9 mph W7.9 kmh W 4.9 mph7.9 kmh 29.56 in1001.0 mb 0.00 in0.0 mm 0.00 in0.0 mm 0.00 in0.0 mm
12:15 AM 50.2°F10.1°C 54.5°F12.5°C 94% 4.3 mph WNW6.9 kmh WNW 4.3 mph6.9 kmh 29.56 in1001.0 mb 0.00 in0.0 mm 0.00 in0.0 mm 0.00 in0.0 mm
12:18 AM 50.3°F10.2°C 54.2°F12.3°C 94% 3.2 mph W5.1 kmh W 3.2 mph5.1 kmh 29.56 in1001.0 mb 0.00 in0.0 mm 0.00 in0.0 mm 0.00 in0.0 mm
12:21 AM 50.3°F10.2°C 54.6°F12.6°C 94% 2.8 mph WNW4.5 kmh WNW 2.8 mph4.5 kmh 29.56 in1001.0 mb 0.00 in0.0 mm 0.00 in0.0 mm 0.00 in0.0 mm
12:24 AM 50.3°F10.2°C 54.1°F12.3°C 93% 3.9 mph NW6.3 kmh NW 4.0 mph6.4 kmh 29.56 in1001.0 mb 0.00 in0.0 mm 0.00 in0.0 mm 0.00 in0.0 mm
12:27 AM 50.3°F10.2°C 54.3°F12.4°C 94% 2.4 mph WNW3.9 kmh WNW 2.4 mph3.9 kmh 29.56 in1001.0 mb 0.00 in0.0 mm 0.00 in0.0 mm 0.00 in0.0 mm
12:30 AM 50.3°F10.2°C 54.5°F12.5°C 94% 3.8 mph NW6.1 kmh NW 3.8 mph6.1 kmh 29.55 in1000.7 mb 0.00 in0.0 mm 0.00 in0.0 mm 0.00 in0.0 mm
12:33 AM 50.5°F10.3°C 54.7°F12.6°C 94% 7.1 mph NW11.4 kmh NW 7.2 mph11.6 kmh 29.56 in1001.0 mb 0.00 in0.0 mm 0.00 in0.0 mm 0.00 in0.0 mm
12:36 AM 50.5°F10.3°C 54.4°F12.4°C 94% 2.0 mph W3.2 kmh W 2.0 mph3.2 kmh 29.56 in1001.0 mb 0.00 in0.0 mm 0.00 in0.0 mm 0.00 in0.0 mm
12:39 AM 50.3°F10.2°C 54.4°F12.4°C 94% 0.4 mph NNW0.6 kmh NNW 0.4 mph0.6 kmh 29.56 in1001.0 mb 0.00 in0.0 mm 0.00 in0.0 mm 0.00 in0.0 mm
12:42 AM 50.2°F10.1°C 54.4°F12.4°C 94% 0.8 mph SW1.3 kmh SW 0.8 mph1.3 kmh 29.56 in1001.0 mb 0.00 in0.0 mm 0.00 in0.0 mm 0.00 in0.0 mm
12:45 AM 50.2°F10.1°C 54.5°F12.5°C 94% 1.6 mph WSW2.6 kmh WSW 1.6 mph2.6 kmh 29.56 in1001.0 mb 0.00 in0.0 mm 0.00 in0.0 mm 0.00 in0.0 mm
12:48 AM 50.3°F10.2°C 54.0°F12.2°C 92% 2.4 mph W3.9 kmh W 2.4 mph3.9 kmh 29.56 in1001.0 mb 0.00 in0.0 mm 0.00 in0.0 mm 0.00 in0.0 mm
12:51 AM 50.2°F10.1°C 54.2°F12.3°C 93% 2.8 mph W4.5 kmh W 2.9 mph4.7 kmh 29.55 in1000.7 mb 0.00 in0.0 mm 0.00 in0.0 mm 0.00 in0.0 mm
12:54 AM 50.1°F10.1°C 54.4°F12.4°C 94% Calm Calm -- 29.55 in1000.7 mb 0.00 in0.0 mm 0.00 in0.0 mm 0.00 in0.0 mm
12:57 AM 50.2°F10.1°C 54.1°F12.3°C 94% 1.5 mph NNW2.4 kmh NNW 1.6 mph2.6 kmh 29.55 in1000.7 mb 0.00 in0.0 mm 0.00 in0.0 mm 0.00 in0.0 mm
01:00 AM 50.2°F10.1°C 54.5°F12.5°C 93% 1.8 mph W2.9 kmh W 2.0 mph3.2 kmh 29.56 in1001.0 mb 0.00 in0.0 mm 0.00 in0.0 mm 0.00 in0.0 mm
01:03 AM 50.2°F10.1°C 54.2°F12.3°C 93% 1.2 mph NNW1.9 kmh NNW 1.2 mph1.9 kmh 29.55 in1000.7 mb 0.00 in0.0 mm 0.00 in0.0 mm 0.00 in0.0 mm
01:06 AM 50.3°F10.2°C 54.4°F12.4°C 93% 1.6 mph WSW2.6 kmh WSW 1.6 mph2.6 kmh 29.55 in1000.7 mb 0.00 in0.0 mm 0.00 in0.0 mm 0.00 in0.0 mm
01:09 AM 50.3°F10.2°C 54.5°F12.5°C 93% 0.4 mph W0.6 kmh W 0.4 mph0.6 kmh 29.55 in1000.7 mb 0.00 in0.0 mm 0.00 in0.0 mm 0.00 in0.0 mm
01:12 AM 50.3°F10.2°C 54.4°F12.4°C 94% 2.0 mph NW3.2 kmh NW 2.0 mph3.2 kmh 29.55 in1000.7 mb 0.00 in0.0 mm 0.00 in0.0 mm 0.00 in0.0 mm
01:15 AM 50.3°F10.2°C 54.6°F12.6°C 94% 2.3 mph NNW3.7 kmh NNW 2.3 mph3.7 kmh 29.55 in1000.7 mb 0.00 in0.0 mm 0.00 in0.0 mm 0.00 in0.0 mm
01:18 AM 50.3°F10.2°C 54.1°F12.3°C 92% 2.0 mph NNW3.2 kmh NNW 2.0 mph3.2 kmh 29.55 in1000.7 mb 0.00 in0.0 mm 0.00 in0.0 mm 0.00 in0.0 mm
01:21 AM 50.3°F10.2°C 54.5°F12.5°C 93% 7.2 mph W11.6 kmh W 7.2 mph11.6 kmh 29.55 in1000.7 mb 0.00 in0.0 mm 0.00 in0.0 mm 0.00 in0.0 mm
01:24 AM 50.5°F10.3°C 54.5°F12.5°C 94% 3.6 mph NW5.8 kmh NW 3.7 mph6.0 kmh 29.55 in1000.7 mb 0.00 in0.0 mm 0.00 in0.0 mm 0.00 in0.0 mm
01:27 AM 50.5°F10.3°C 54.7°F12.6°C 94% 2.8 mph WNW4.5 kmh WNW 2.9 mph4.7 kmh 29.55 in1000.7 mb 0.00 in0.0 mm 0.00 in0.0 mm 0.00 in0.0 mm
01:30 AM 50.3°F10.2°C 54.6°F12.6°C 94% 0.8 mph NNW1.3 kmh NNW 0.8 mph1.3 kmh 29.55 in1000.7 mb 0.00 in0.0 mm 0.00 in0.0 mm 0.00 in0.0 mm
01:33 AM 50.2°F10.1°C 54.5°F12.5°C 94% 4.6 mph WNW7.4 kmh WNW 4.7 mph7.6 kmh 29.55 in1000.7 mb 0.00 in0.0 mm 0.00 in0.0 mm 0.00 in0.0 mm
01:36 AM 50.2°F10.1°C 54.7°F12.6°C 94% 1.2 mph W1.9 kmh W 1.2 mph1.9 kmh 29.55 in1000.7 mb 0.00 in0.0 mm 0.00 in0.0 mm 0.02 in0.5 mm
01:39 AM 50.3°F10.2°C 54.5°F12.5°C 94% 2.8 mph W4.5 kmh W 2.8 mph4.5 kmh 29.55 in1000.7 mb 0.00 in0.0 mm 0.00 in0.0 mm 0.02 in0.5 mm
01:42 AM 50.3°F10.2°C 54.6°F12.6°C 94% 2.0 mph W3.2 kmh W 2.0 mph3.2 kmh 29.55 in1000.7 mb 0.00 in0.0 mm 0.00 in0.0 mm 0.02 in0.5 mm
01:45 AM 50.3°F10.2°C 54.5°F12.5°C 94% 0.8 mph WNW1.3 kmh WNW 0.8 mph1.3 kmh 29.55 in1000.7 mb 0.00 in0.0 mm 0.00 in0.0 mm 0.02 in0.5 mm
01:48 AM 50.3°F10.2°C 54.0°F12.2°C 92% 1.2 mph SW1.9 kmh SW 1.2 mph1.9 kmh 29.55 in1000.7 mb 0.00 in0.0 mm 0.00 in0.0 mm 0.02 in0.5 mm
01:51 AM 50.3°F10.2°C 54.2°F12.3°C 92% 2.8 mph WNW4.5 kmh WNW 2.8 mph4.5 kmh 29.55 in1000.7 mb 0.00 in0.0 mm 0.00 in0.0 mm 0.02 in0.5 mm
01:54 AM 50.3°F10.2°C 54.5°F12.5°C 93% 4.3 mph WSW6.9 kmh WSW 4.3 mph6.9 kmh 29.55 in1000.7 mb 0.00 in0.0 mm 0.00 in0.0 mm 0.02 in0.5 mm
01:57 AM 50.3°F10.2°C 54.6°F12.6°C 94% 4.0 mph W6.4 kmh W 4.1 mph6.6 kmh 29.55 in1000.7 mb 0.00 in0.0 mm 0.00 in0.0 mm 0.02 in0.5 mm
02:00 AM 50.5°F10.3°C 54.1°F12.3°C 92% 2.3 mph W3.7 kmh W 2.3 mph3.7 kmh 29.55 in1000.7 mb 0.00 in0.0 mm 0.00 in0.0 mm 0.02 in0.5 mm
02:03 AM 50.5°F10.3°C 54.6°F12.6°C 94% 2.4 mph WNW3.9 kmh WNW 2.4 mph3.9 kmh 29.55 in1000.7 mb 0.00 in0.0 mm 0.00 in0.0 mm 0.02 in0.5 mm
02:06 AM 50.5°F10.3°C 54.5°F12.5°C 93% 2.0 mph W3.2 kmh W 2.0 mph3.2 kmh 29.55 in1000.7 mb 0.00 in0.0 mm 0.00 in0.0 mm 0.02 in0.5 mm
02:09 AM 50.3°F10.2°C 54.6°F12.6°C 93% 2.4 mph W3.9 kmh W 2.4 mph3.9 kmh 29.55 in1000.7 mb 0.00 in0.0 mm 0.00 in0.0 mm 0.02 in0.5 mm
02:12 AM 50.3°F10.2°C 54.6°F12.6°C 94% 1.5 mph NNW2.4 kmh NNW 1.6 mph2.6 kmh 29.55 in1000.7 mb 0.00 in0.0 mm 0.00 in0.0 mm 0.02 in0.5 mm
02:15 AM 50.3°F10.2°C 54.4°F12.4°C 93% 6.5 mph W10.5 kmh W 6.5 mph10.5 kmh 29.55 in1000.7 mb 0.00 in0.0 mm 0.00 in0.0 mm 0.02 in0.5 mm
02:18 AM 50.3°F10.2°C 54.5°F12.5°C 93% 1.6 mph WNW2.6 kmh WNW 1.6 mph2.6 kmh 29.55 in1000.7 mb 0.00 in0.0 mm 0.00 in0.0 mm 0.02 in0.5 mm
02:21 AM 50.3°F10.2°C 54.5°F12.5°C 94% 3.2 mph WSW5.1 kmh WSW 3.3 mph5.3 kmh 29.55 in1000.7 mb 0.00 in0.0 mm 0.00 in0.0 mm 0.02 in0.5 mm
02:24 AM 50.3°F10.2°C 54.6°F12.6°C 94% 5.3 mph WSW8.5 kmh WSW 5.3 mph8.5 kmh 29.55 in1000.7 mb 0.00 in0.0 mm 0.00 in0.0 mm 0.02 in0.5 mm
02:27 AM 50.5°F10.3°C 54.5°F12.5°C 94% 1.6 mph SW2.6 kmh SW 1.6 mph2.6 kmh 29.55 in1000.7 mb 0.00 in0.0 mm 0.00 in0.0 mm 0.02 in0.5 mm
02:30 AM 50.3°F10.2°C 54.5°F12.5°C 93% 1.2 mph W1.9 kmh W 1.2 mph1.9 kmh 29.55 in1000.7 mb 0.00 in0.0 mm 0.00 in0.0 mm 0.02 in0.5 mm
02:33 AM 50.5°F10.3°C 54.6°F12.6°C 93% 0.8 mph NNW1.3 kmh NNW 0.8 mph1.3 kmh 29.55 in1000.7 mb 0.00 in0.0 mm 0.00 in0.0 mm 0.02 in0.5 mm
02:36 AM 50.5°F10.3°C 54.5°F12.5°C 93% 3.6 mph W5.8 kmh W 3.6 mph5.8 kmh 29.55 in1000.7 mb 0.00 in0.0 mm 0.00 in0.0 mm 0.02 in0.5 mm
02:39 AM 50.5°F10.3°C 54.6°F12.6°C 94% 7.7 mph SW12.4 kmh SW 7.7 mph12.4 kmh 29.54 in1000.3 mb 0.00 in0.0 mm 0.00 in0.0 mm 0.02 in0.5 mm
02:42 AM 50.5°F10.3°C 54.7°F12.6°C 93% 2.7 mph WSW4.3 kmh WSW 2.9 mph4.7 kmh 29.55 in1000.7 mb 0.00 in0.0 mm 0.00 in0.0 mm 0.02 in0.5 mm
02:45 AM 50.3°F10.2°C 54.8°F12.7°C 93% 2.8 mph W4.5 kmh W 2.9 mph4.7 kmh 29.54 in1000.3 mb 0.00 in0.0 mm 0.00 in0.0 mm 0.02 in0.5 mm
02:48 AM 50.6°F10.3°C 54.5°F12.5°C 93% 4.2 mph W6.8 kmh W 4.5 mph7.2 kmh 29.55 in1000.7 mb 0.00 in0.0 mm 0.00 in0.0 mm 0.02 in0.5 mm
02:51 AM 50.6°F10.3°C 54.6°F12.6°C 93% 3.6 mph W5.8 kmh W 3.7 mph6.0 kmh 29.53 in1000.0 mb 0.00 in0.0 mm 0.00 in0.0 mm 0.02 in0.5 mm
02:54 AM 50.5°F10.3°C 54.7°F12.6°C 93% 4.6 mph W7.4 kmh W 4.7 mph7.6 kmh 29.54 in1000.3 mb 0.00 in0.0 mm 0.00 in0.0 mm 0.02 in0.5 mm
02:57 AM 50.5°F10.3°C 54.5°F12.5°C 93% 2.4 mph WSW3.9 kmh WSW 2.4 mph3.9 kmh 29.54 in1000.3 mb 0.00 in0.0 mm 0.00 in0.0 mm 0.04 in1.0 mm
03:00 AM 50.5°F10.3°C 54.8°F12.7°C 94% 1.5 mph W2.4 kmh W 1.6 mph2.6 kmh 29.54 in1000.3 mb 0.00 in0.0 mm 0.00 in0.0 mm 0.04 in1.0 mm
03:03 AM 50.5°F10.3°C 54.5°F12.5°C 92% 3.1 mph WNW5.0 kmh WNW 3.1 mph5.0 kmh 29.54 in1000.3 mb 0.00 in0.0 mm 0.00 in0.0 mm 0.06 in1.5 mm
03:06 AM 50.5°F10.3°C 54.5°F12.5°C 92% 2.0 mph SSW3.2 kmh SSW 2.0 mph3.2 kmh 29.53 in1000.0 mb 0.00 in0.0 mm 0.00 in0.0 mm 0.06 in1.5 mm
03:09 AM 50.5°F10.3°C 54.9°F12.7°C 94% 3.6 mph WNW5.8 kmh WNW 3.7 mph6.0 kmh 29.53 in1000.0 mb 0.00 in0.0 mm 0.00 in0.0 mm 0.08 in2.0 mm
03:12 AM 50.6°F10.3°C 55.0°F12.8°C 94% 4.8 mph W7.7 kmh W 4.8 mph7.7 kmh 29.54 in1000.3 mb 0.00 in0.0 mm 0.00 in0.0 mm 0.10 in2.5 mm
03:15 AM 50.6°F10.3°C 55.1°F12.8°C 94% 2.8 mph W4.5 kmh W 2.8 mph4.5 kmh 29.53 in1000.0 mb 0.00 in0.0 mm 0.00 in0.0 mm 0.10 in2.5 mm
03:18 AM 50.6°F10.3°C 54.9°F12.7°C 94% 3.1 mph W5.0 kmh W 3.1 mph5.0 kmh 29.53 in1000.0 mb 0.00 in0.0 mm 0.00 in0.0 mm 0.12 in3.0 mm
03:21 AM 50.5°F10.3°C 54.8°F12.7°C 94% 8.5 mph W13.7 kmh W 8.6 mph13.8 kmh 29.54 in1000.3 mb 0.00 in0.0 mm 0.00 in0.0 mm 0.12 in3.0 mm
03:24 AM 50.6°F10.3°C 54.8°F12.7°C 93% 3.6 mph W5.8 kmh W 3.6 mph5.8 kmh 29.54 in1000.3 mb 0.00 in0.0 mm 0.00 in0.0 mm 0.14 in3.6 mm
03:27 AM 50.6°F10.3°C 54.5°F12.5°C 92% 1.5 mph WNW2.4 kmh WNW 1.6 mph2.6 kmh 29.54 in1000.3 mb 0.00 in0.0 mm 0.00 in0.0 mm 0.14 in3.6 mm
03:30 AM 50.6°F10.3°C 54.9°F12.7°C 94% 2.1 mph W3.4 kmh W 2.1 mph3.4 kmh 29.53 in1000.0 mb 0.00 in0.0 mm 0.00 in0.0 mm 0.16 in4.1 mm
03:33 AM 50.6°F10.3°C 54.9°F12.7°C 93% 3.8 mph NW6.1 kmh NW 3.8 mph6.1 kmh 29.54 in1000.3 mb 0.00 in0.0 mm 0.00 in0.0 mm 0.16 in4.1 mm
03:36 AM 50.6°F10.3°C 54.8°F12.7°C 94% 2.3 mph WNW3.7 kmh WNW 2.4 mph3.9 kmh 29.53 in1000.0 mb 0.00 in0.0 mm 0.00 in0.0 mm 0.18 in4.6 mm
03:39 AM 50.5°F10.3°C 54.7°F12.6°C 93% 2.4 mph NW3.9 kmh NW 2.4 mph3.9 kmh 29.54 in1000.3 mb 0.00 in0.0 mm 0.00 in0.0 mm 0.18 in4.6 mm
03:42 AM 50.3°F10.2°C 54.8°F12.7°C 93% 2.8 mph W4.5 kmh W 2.8 mph4.5 kmh 29.53 in1000.0 mb 0.00 in0.0 mm 0.00 in0.0 mm 0.20 in5.1 mm
03:45 AM 50.6°F10.3°C 54.9°F12.7°C 93% 2.7 mph NNW4.3 kmh NNW 2.7 mph4.3 kmh 29.53 in1000.0 mb 0.00 in0.0 mm 0.00 in0.0 mm 0.20 in5.1 mm
03:48 AM 50.5°F10.3°C 54.7°F12.6°C 93% 5.7 mph W9.2 kmh W 5.7 mph9.2 kmh 29.53 in1000.0 mb 0.00 in0.0 mm 0.00 in0.0 mm 0.20 in5.1 mm
03:51 AM 50.5°F10.3°C 54.4°F12.4°C 92% 6.1 mph W9.8 kmh W 6.1 mph9.8 kmh 29.54 in1000.3 mb 0.00 in0.0 mm 0.00 in0.0 mm 0.22 in5.6 mm
03:54 AM 50.5°F10.3°C 54.7°F12.6°C 93% 2.8 mph WNW4.5 kmh WNW 2.8 mph4.5 kmh 29.54 in1000.3 mb 0.00 in0.0 mm 0.00 in0.0 mm 0.22 in5.6 mm
03:57 AM 50.3°F10.2°C 54.7°F12.6°C 93% 4.8 mph WNW7.7 kmh WNW 4.8 mph7.7 kmh 29.54 in1000.3 mb 0.00 in0.0 mm 0.00 in0.0 mm 0.22 in5.6 mm
04:00 AM 50.3°F10.2°C 54.7°F12.6°C 93% 2.3 mph WNW3.7 kmh WNW 2.5 mph4.0 kmh 29.54 in1000.3 mb 0.00 in0.0 mm 0.00 in0.0 mm 0.24 in6.1 mm
04:03 AM 50.3°F10.2°C 54.5°F12.5°C 93% 8.1 mph WNW13.0 kmh WNW 8.1 mph13.0 kmh 29.54 in1000.3 mb 0.00 in0.0 mm 0.00 in0.0 mm 0.24 in6.1 mm
04:06 AM 50.2°F10.1°C 54.6°F12.6°C 93% 4.8 mph WNW7.7 kmh WNW 4.8 mph7.7 kmh 29.54 in1000.3 mb 0.00 in0.0 mm 0.00 in0.0 mm 0.24 in6.1 mm
04:09 AM 50.3°F10.2°C 54.0°F12.2°C 92% 3.2 mph NW5.1 kmh NW 3.3 mph5.3 kmh 29.54 in1000.3 mb 0.00 in0.0 mm 0.00 in0.0 mm 0.26 in6.6 mm
04:12 AM 50.2°F10.1°C 54.3°F12.4°C 93% 1.6 mph WNW2.6 kmh WNW 1.6 mph2.6 kmh 29.54 in1000.3 mb 0.00 in0.0 mm 0.00 in0.0 mm 0.26 in6.6 mm
04:15 AM 50.1°F10.1°C 54.0°F12.2°C 91% 5.0 mph NNW8.0 kmh NNW 5.0 mph8.0 kmh 29.54 in1000.3 mb 0.00 in0.0 mm 0.00 in0.0 mm 0.26 in6.6 mm
04:18 AM 50.0°F10.0°C 54.2°F12.3°C 92% 4.1 mph NNW6.6 kmh NNW 4.1 mph6.6 kmh 29.53 in1000.0 mb 0.00 in0.0 mm 0.00 in0.0 mm 0.28 in7.1 mm
04:21 AM 50.0°F10.0°C 54.1°F12.3°C 92% 1.2 mph NNW1.9 kmh NNW 1.2 mph1.9 kmh 29.54 in1000.3 mb 0.00 in0.0 mm 0.00 in0.0 mm 0.28 in7.1 mm
04:24 AM 49.9°F9.9°C 54.2°F12.3°C 92% 1.2 mph WNW1.9 kmh WNW 1.2 mph1.9 kmh 29.54 in1000.3 mb 0.00 in0.0 mm 0.00 in0.0 mm 0.28 in7.1 mm
04:27 AM 50.0°F10.0°C 54.5°F12.5°C 93% 5.2 mph NNW8.4 kmh NNW 5.2 mph8.4 kmh 29.53 in1000.0 mb 0.00 in0.0 mm 0.00 in0.0 mm 0.28 in7.1 mm
04:30 AM 49.9°F9.9°C 54.0°F12.2°C 92% 2.0 mph WNW3.2 kmh WNW 2.0 mph3.2 kmh 29.54 in1000.3 mb 0.00 in0.0 mm 0.00 in0.0 mm 0.28 in7.1 mm
04:33 AM 49.9°F9.9°C 54.1°F12.3°C 92% 1.5 mph W2.4 kmh W 1.6 mph2.6 kmh 29.54 in1000.3 mb 0.00 in0.0 mm 0.00 in0.0 mm 0.28 in7.1 mm
04:36 AM 49.8°F9.9°C 54.2°F12.3°C 92% 0.8 mph WNW1.3 kmh WNW 0.8 mph1.3 kmh 29.54 in1000.3 mb 0.00 in0.0 mm 0.00 in0.0 mm 0.28 in7.1 mm
04:39 AM 49.8°F9.9°C 54.2°F12.3°C 92% 0.8 mph NW1.3 kmh NW 0.8 mph1.3 kmh 29.53 in1000.0 mb 0.00 in0.0 mm 0.00 in0.0 mm 0.28 in7.1 mm
04:42 AM 49.8°F9.9°C 54.1°F12.3°C 92% 2.0 mph WSW3.2 kmh WSW 2.0 mph3.2 kmh 29.54 in1000.3 mb 0.00 in0.0 mm 0.00 in0.0 mm 0.28 in7.1 mm
04:45 AM 49.8°F9.9°C 54.0°F12.2°C 92% 1.6 mph WNW2.6 kmh WNW 1.6 mph2.6 kmh 29.54 in1000.3 mb 0.00 in0.0 mm 0.00 in0.0 mm 0.28 in7.1 mm
04:48 AM 49.8°F9.9°C 54.2°F12.3°C 92% Calm Calm -- 29.53 in1000.0 mb 0.00 in0.0 mm 0.00 in0.0 mm 0.28 in7.1 mm
04:51 AM 49.7°F9.8°C 54.2°F12.3°C 92% 1.2 mph WSW1.9 kmh WSW 1.2 mph1.9 kmh 29.53 in1000.0 mb 0.00 in0.0 mm 0.00 in0.0 mm 0.28 in7.1 mm
04:54 AM 49.7°F9.8°C 54.0°F12.2°C 92% 2.7 mph W4.3 kmh W 2.7 mph4.3 kmh 29.53 in1000.0 mb 0.00 in0.0 mm 0.00 in0.0 mm 0.28 in7.1 mm
04:57 AM 49.6°F9.8°C 54.1°F12.3°C 92% Calm Calm -- 29.53 in1000.0 mb 0.00 in0.0 mm 0.00 in0.0 mm 0.28 in7.1 mm
05:00 AM 49.6°F9.8°C 53.7°F12.1°C 92% 1.1 mph W1.8 kmh W 1.2 mph1.9 kmh 29.53 in1000.0 mb 0.00 in0.0 mm 0.00 in0.0 mm 0.28 in7.1 mm
05:03 AM 49.6°F9.8°C 54.1°F12.3°C 92% 1.2 mph W1.9 kmh W 1.2 mph1.9 kmh 29.53 in1000.0 mb 0.00 in0.0 mm 0.00 in0.0 mm 0.28 in7.1 mm
05:06 AM 49.6°F9.8°C 53.9°F12.2°C 92% 1.2 mph WNW1.9 kmh WNW 1.2 mph1.9 kmh 29.53 in1000.0 mb 0.00 in0.0 mm 0.00 in0.0 mm 0.28 in7.1 mm
05:09 AM 49.6°F9.8°C 54.0°F12.2°C 92% 1.6 mph W2.6 kmh W 1.6 mph2.6 kmh 29.53 in1000.0 mb 0.00 in0.0 mm 0.00 in0.0 mm 0.28 in7.1 mm
05:12 AM 49.7°F9.8°C 54.2°F12.3°C 92% 3.2 mph WNW5.1 kmh WNW 3.2 mph5.1 kmh 29.53 in1000.0 mb 0.00 in0.0 mm 0.00 in0.0 mm 0.28 in7.1 mm
05:15 AM 49.7°F9.8°C 53.9°F12.2°C 92% 3.5 mph W5.6 kmh W 3.5 mph5.6 kmh 29.53 in1000.0 mb 0.00 in0.0 mm 0.00 in0.0 mm 0.28 in7.1 mm
05:18 AM 49.7°F9.8°C 54.1°F12.3°C 92% 0.4 mph W0.6 kmh W 0.4 mph0.6 kmh 29.53 in1000.0 mb 0.00 in0.0 mm 0.00 in0.0 mm 0.28 in7.1 mm
05:21 AM 49.7°F9.8°C 53.9°F12.2°C 92% 1.1 mph WNW1.8 kmh WNW 1.1 mph1.8 kmh 29.53 in1000.0 mb 0.00 in0.0 mm 0.00 in0.0 mm 0.28 in7.1 mm
05:24 AM 49.7°F9.8°C 53.8°F12.1°C 92% 2.0 mph W3.2 kmh W 2.0 mph3.2 kmh 29.54 in1000.3 mb 0.00 in0.0 mm 0.00 in0.0 mm 0.28 in7.1 mm
05:27 AM 49.7°F9.8°C 53.9°F12.2°C 92% 1.6 mph NNW2.6 kmh NNW 1.6 mph2.6 kmh 29.54 in1000.3 mb 0.00 in0.0 mm 0.00 in0.0 mm 0.28 in7.1 mm
05:30 AM 49.7°F9.8°C 54.1°F12.3°C 92% 0.8 mph W1.3 kmh W 0.8 mph1.3 kmh 29.54 in1000.3 mb 0.00 in0.0 mm 0.00 in0.0 mm 0.28 in7.1 mm
05:33 AM 49.7°F9.8°C 53.5°F11.9°C 91% 1.6 mph W2.6 kmh W 1.6 mph2.6 kmh 29.54 in1000.3 mb 0.00 in0.0 mm 0.00 in0.0 mm 0.28 in7.1 mm
05:36 AM 49.8°F9.9°C 53.7°F12.1°C 91% 0.8 mph WNW1.3 kmh WNW 0.8 mph1.3 kmh 29.55 in1000.7 mb 0.00 in0.0 mm 0.00 in0.0 mm 0.28 in7.1 mm
05:39 AM 49.7°F9.8°C 53.9°F12.2°C 92% 1.6 mph NNW2.6 kmh NNW 1.6 mph2.6 kmh 29.54 in1000.3 mb 0.00 in0.0 mm 0.00 in0.0 mm 0.28 in7.1 mm
05:42 AM 49.8°F9.9°C 53.9°F12.2°C 92% 2.7 mph NNW4.3 kmh NNW 2.8 mph4.5 kmh 29.55 in1000.7 mb 0.00 in0.0 mm 0.00 in0.0 mm 0.28 in7.1 mm
05:45 AM 49.7°F9.8°C 54.1°F12.3°C 92% 0.8 mph NNW1.3 kmh NNW 0.8 mph1.3 kmh 29.55 in1000.7 mb 0.00 in0.0 mm 0.00 in0.0 mm 0.28 in7.1 mm
05:48 AM 49.8°F9.9°C 54.1°F12.3°C 92% 0.8 mph NNW1.3 kmh NNW 0.8 mph1.3 kmh 29.55 in1000.7 mb 0.00 in0.0 mm 0.00 in0.0 mm 0.28 in7.1 mm
05:51 AM 49.8°F9.9°C 53.8°F12.1°C 92% 2.7 mph NNW4.3 kmh NNW 2.7 mph4.3 kmh 29.55 in1000.7 mb 0.00 in0.0 mm 0.00 in0.0 mm 0.28 in7.1 mm
05:54 AM 49.8°F9.9°C 53.8°F12.1°C 92% 4.8 mph WSW7.7 kmh WSW 4.9 mph7.9 kmh 29.55 in1000.7 mb 0.00 in0.0 mm 0.00 in0.0 mm 0.28 in7.1 mm
05:57 AM 49.7°F9.8°C 54.0°F12.2°C 92% 1.2 mph WNW1.9 kmh WNW 1.2 mph1.9 kmh 29.55 in1000.7 mb 0.00 in0.0 mm 0.00 in0.0 mm 0.28 in7.1 mm
06:00 AM 49.8°F9.9°C 53.8°F12.1°C 92% 5.0 mph NW8.0 kmh NW 5.0 mph8.0 kmh 29.55 in1000.7 mb 0.00 in0.0 mm 0.00 in0.0 mm 0.28 in7.1 mm
06:03 AM 49.7°F9.8°C 54.1°F12.3°C 92% 3.4 mph NNW5.5 kmh NNW 3.4 mph5.5 kmh 29.55 in1000.7 mb 0.00 in0.0 mm 0.00 in0.0 mm 0.28 in7.1 mm
06:06 AM 49.7°F9.8°C 53.8°F12.1°C 92% 1.2 mph WNW1.9 kmh WNW 1.2 mph1.9 kmh 29.54 in1000.3 mb 0.00 in0.0 mm 0.00 in0.0 mm 0.28 in7.1 mm
06:09 AM 49.6°F9.8°C 53.8°F12.1°C 92% 1.6 mph 2.6 kmh 1.6 mph2.6 kmh 29.54 in1000.3 mb 0.00 in0.0 mm 0.00 in0.0 mm 0.28 in7.1 mm
06:12 AM 49.4°F9.7°C 53.8°F12.1°C 92% 2.4 mph W3.9 kmh W 2.4 mph3.9 kmh 29.55 in1000.7 mb 0.00 in0.0 mm 0.00 in0.0 mm 0.28 in7.1 mm
06:15 AM 49.6°F9.8°C 53.9°F12.2°C 92% 0.8 mph W1.3 kmh W 0.8 mph1.3 kmh 29.54 in1000.3 mb 0.00 in0.0 mm 0.00 in0.0 mm 0.28 in7.1 mm
06:18 AM 49.4°F9.7°C 53.7°F12.1°C 92% 1.9 mph WSW3.1 kmh WSW 2.0 mph3.2 kmh 29.54 in1000.3 mb 0.00 in0.0 mm 0.00 in0.0 mm 0.28 in7.1 mm
06:21 AM 49.4°F9.7°C 53.8°F12.1°C 92% 0.8 mph WNW1.3 kmh WNW 0.8 mph1.3 kmh 29.54 in1000.3 mb 0.00 in0.0 mm 0.00 in0.0 mm 0.28 in7.1 mm
06:24 AM 49.4°F9.7°C 53.9°F12.2°C 92% 0.8 mph W1.3 kmh W 0.8 mph1.3 kmh 29.54 in1000.3 mb 0.00 in0.0 mm 0.00 in0.0 mm 0.30 in7.6 mm
06:27 AM 49.4°F9.7°C 53.9°F12.2°C 92% 3.8 mph NNW6.1 kmh NNW 4.1 mph6.6 kmh 29.55 in1000.7 mb 0.00 in0.0 mm 0.00 in0.0 mm 0.30 in7.6 mm
06:30 AM 49.4°F9.7°C 53.9°F12.2°C 93% 0.4 mph W0.6 kmh W 0.4 mph0.6 kmh 29.54 in1000.3 mb 0.00 in0.0 mm 0.00 in0.0 mm 0.30 in7.6 mm
06:33 AM 49.4°F9.7°C 53.7°F12.1°C 92% 6.1 mph W9.8 kmh W 6.1 mph9.8 kmh 29.55 in1000.7 mb 0.00 in0.0 mm 0.00 in0.0 mm 0.30 in7.6 mm
06:36 AM 49.4°F9.7°C 53.9°F12.2°C 92% 2.8 mph NNW4.5 kmh NNW 2.8 mph4.5 kmh 29.55 in1000.7 mb 0.00 in0.0 mm 0.00 in0.0 mm 0.30 in7.6 mm
06:39 AM 49.6°F9.8°C 53.8°F12.1°C 92% 2.0 mph W3.2 kmh W 2.0 mph3.2 kmh 29.54 in1000.3 mb 0.00 in0.0 mm 0.00 in0.0 mm 0.30 in7.6 mm
06:42 AM 49.4°F9.7°C 53.8°F12.1°C 92% 2.0 mph WNW3.2 kmh WNW 2.2 mph3.5 kmh 29.55 in1000.7 mb 0.00 in0.0 mm 0.00 in0.0 mm 0.30 in7.6 mm
06:45 AM 49.6°F9.8°C 53.8°F12.1°C 92% 4.0 mph WNW6.4 kmh WNW 4.0 mph6.4 kmh 29.55 in1000.7 mb 0.00 in0.0 mm 0.00 in0.0 mm 0.30 in7.6 mm
06:48 AM 49.6°F9.8°C 53.9°F12.2°C 92% 4.8 mph W7.7 kmh W 4.9 mph7.9 kmh 29.55 in1000.7 mb 0.00 in0.0 mm 0.00 in0.0 mm 0.30 in7.6 mm
06:51 AM 49.7°F9.8°C 53.4°F11.9°C 91% 1.6 mph NW2.6 kmh NW 1.6 mph2.6 kmh 29.55 in1000.7 mb 0.00 in0.0 mm 0.00 in0.0 mm 0.30 in7.6 mm
06:54 AM 49.7°F9.8°C 53.5°F11.9°C 91% 4.0 mph W6.4 kmh W 4.1 mph6.6 kmh 29.55 in1000.7 mb 0.00 in0.0 mm 0.00 in0.0 mm 0.30 in7.6 mm
06:57 AM 49.6°F9.8°C 53.7°F12.1°C 92% 3.0 mph W4.8 kmh W 3.0 mph4.8 kmh 29.55 in1000.7 mb 0.00 in0.0 mm 0.00 in0.0 mm 0.30 in7.6 mm
07:00 AM 49.7°F9.8°C 53.8°F12.1°C 92% 3.1 mph W5.0 kmh W 3.1 mph5.0 kmh 29.55 in1000.7 mb 0.00 in0.0 mm 0.00 in0.0 mm 0.30 in7.6 mm
07:03 AM 49.8°F9.9°C 53.7°F12.1°C 92% 2.0 mph NW3.2 kmh NW 2.0 mph3.2 kmh 29.55 in1000.7 mb 0.00 in0.0 mm 0.00 in0.0 mm 0.30 in7.6 mm
07:06 AM 49.8°F9.9°C 53.9°F12.2°C 92% 3.2 mph WNW5.1 kmh WNW 3.3 mph5.3 kmh 29.55 in1000.7 mb 0.00 in0.0 mm 0.00 in0.0 mm 0.30 in7.6 mm
07:09 AM 49.8°F9.9°C 53.9°F12.2°C 92% 2.0 mph 3.2 kmh 2.0 mph3.2 kmh 29.55 in1000.7 mb 0.00 in0.0 mm 0.00 in0.0 mm 0.30 in7.6 mm
07:12 AM 49.8°F9.9°C 53.8°F12.1°C 92% 0.8 mph WNW1.3 kmh WNW 0.8 mph1.3 kmh 29.55 in1000.7 mb 0.00 in0.0 mm 0.00 in0.0 mm 0.30 in7.6 mm
07:15 AM 49.7°F9.8°C 53.9°F12.2°C 92% 2.7 mph NW4.3 kmh NW 2.9 mph4.7 kmh 29.55 in1000.7 mb 0.00 in0.0 mm 0.00 in0.0 mm 0.30 in7.6 mm
07:18 AM 49.7°F9.8°C 54.1°F12.3°C 92% Calm Calm -- 29.55 in1000.7 mb 0.00 in0.0 mm 0.00 in0.0 mm 0.30 in7.6 mm
07:21 AM 49.7°F9.8°C 54.0°F12.2°C 92% 0.4 mph NNW0.6 kmh NNW 0.4 mph0.6 kmh 29.55 in1000.7 mb 0.00 in0.0 mm 0.00 in0.0 mm 0.30 in7.6 mm
07:24 AM 49.8°F9.9°C 54.1°F12.3°C 92% 0.8 mph W1.3 kmh W 0.8 mph1.3 kmh 29.55 in1000.7 mb 0.00 in0.0 mm 0.00 in0.0 mm 0.30 in7.6 mm
07:27 AM 49.8°F9.9°C 54.0°F12.2°C 92% 3.2 mph WNW5.1 kmh WNW 3.2 mph5.1 kmh 29.55 in1000.7 mb 0.00 in0.0 mm 0.00 in0.0 mm 0.30 in7.6 mm
07:30 AM 49.8°F9.9°C 53.7°F12.1°C 92% Calm Calm -- 29.55 in1000.7 mb 0.00 in0.0 mm 0.00 in0.0 mm 0.30 in7.6 mm
07:33 AM 49.8°F9.9°C 53.7°F12.1°C 92% 1.6 mph W2.6 kmh W 1.6 mph2.6 kmh 29.56 in1001.0 mb 0.00 in0.0 mm 0.00 in0.0 mm 0.30 in7.6 mm
07:36 AM 49.8°F9.9°C 54.0°F12.2°C 92% 1.9 mph WNW3.1 kmh WNW 1.9 mph3.1 kmh 29.55 in1000.7 mb 0.00 in0.0 mm 0.00 in0.0 mm 0.30 in7.6 mm
07:39 AM 49.7°F9.8°C 53.9°F12.2°C 92% 3.8 mph NNW6.1 kmh NNW 4.1 mph6.6 kmh 29.55 in1000.7 mb 0.00 in0.0 mm 0.00 in0.0 mm 0.30 in7.6 mm
07:42 AM 49.8°F9.9°C 53.9°F12.2°C 92% 1.6 mph WNW2.6 kmh WNW 1.6 mph2.6 kmh 29.56 in1001.0 mb 0.00 in0.0 mm 0.00 in0.0 mm 0.30 in7.6 mm
07:45 AM 49.8°F9.9°C 54.1°F12.3°C 92% 5.2 mph W8.4 kmh W 5.2 mph8.4 kmh 29.56 in1001.0 mb 0.00 in0.0 mm 0.00 in0.0 mm 0.32 in8.1 mm
07:48 AM 49.8°F9.9°C 53.8°F12.1°C 92% 0.8 mph NNW1.3 kmh NNW 0.8 mph1.3 kmh 29.56 in1001.0 mb 0.00 in0.0 mm 0.00 in0.0 mm 0.32 in8.1 mm
07:51 AM 49.8°F9.9°C 53.7°F12.1°C 92% 3.4 mph SW5.5 kmh SW 3.7 mph6.0 kmh 29.56 in1001.0 mb 0.00 in0.0 mm 0.00 in0.0 mm 0.32 in8.1 mm
07:54 AM 49.8°F9.9°C 53.8°F12.1°C 92% 6.5 mph NW10.5 kmh NW 6.5 mph10.5 kmh 29.56 in1001.0 mb 0.00 in0.0 mm 0.00 in0.0 mm 0.32 in8.1 mm
07:57 AM 49.9°F9.9°C 53.6°F12.0°C 91% 3.4 mph NNW5.5 kmh NNW 3.7 mph6.0 kmh 29.57 in1001.4 mb 0.00 in0.0 mm 0.00 in0.0 mm 0.34 in8.6 mm
08:00 AM 49.9°F9.9°C 53.7°F12.1°C 92% 6.1 mph W9.8 kmh W 6.1 mph9.8 kmh 29.57 in1001.4 mb 0.00 in0.0 mm 0.00 in0.0 mm 0.34 in8.6 mm
08:03 AM 49.9°F9.9°C 53.9°F12.2°C 92% 3.2 mph WNW5.1 kmh WNW 3.3 mph5.3 kmh 29.58 in1001.7 mb 0.00 in0.0 mm 0.00 in0.0 mm 0.34 in8.6 mm
08:06 AM 49.9°F9.9°C 53.9°F12.2°C 92% 1.2 mph NW1.9 kmh NW 1.2 mph1.9 kmh 29.58 in1001.7 mb 0.00 in0.0 mm 0.00 in0.0 mm 0.36 in9.1 mm
08:09 AM 49.9°F9.9°C 54.1°F12.3°C 93% 4.2 mph WNW6.8 kmh WNW 4.5 mph7.2 kmh 29.58 in1001.7 mb 0.00 in0.0 mm 0.00 in0.0 mm 0.36 in9.1 mm
08:12 AM 49.9°F9.9°C 53.9°F12.2°C 93% 8.9 mph NW14.3 kmh NW 9.0 mph14.5 kmh 29.58 in1001.7 mb 0.00 in0.0 mm 0.00 in0.0 mm 0.38 in9.7 mm
08:15 AM 49.9°F9.9°C 54.0°F12.2°C 92% 4.9 mph WNW7.9 kmh WNW 4.9 mph7.9 kmh 29.58 in1001.7 mb 0.00 in0.0 mm 0.00 in0.0 mm 0.40 in10.2 mm
08:18 AM 49.9°F9.9°C 54.0°F12.2°C 92% 4.0 mph NW6.4 kmh NW 4.1 mph6.6 kmh 29.58 in1001.7 mb 0.00 in0.0 mm 0.00 in0.0 mm 0.40 in10.2 mm
08:21 AM 49.7°F9.8°C 53.9°F12.2°C 92% 3.0 mph NNW4.8 kmh NNW 3.2 mph5.1 kmh 29.57 in1001.4 mb 0.00 in0.0 mm 0.00 in0.0 mm 0.42 in10.7 mm
08:24 AM 49.6°F9.8°C 53.7°F12.1°C 92% 1.6 mph WNW2.6 kmh WNW 1.6 mph2.6 kmh 29.56 in1001.0 mb 0.00 in0.0 mm 0.00 in0.0 mm 0.42 in10.7 mm
08:27 AM 49.3°F9.6°C 53.5°F11.9°C 90% 3.2 mph NNW5.1 kmh NNW 3.3 mph5.3 kmh 29.56 in1001.0 mb 0.00 in0.0 mm 0.00 in0.0 mm 0.42 in10.7 mm
08:30 AM 49.3°F9.6°C 53.6°F12.0°C 91% 0.8 mph WSW1.3 kmh WSW 0.8 mph1.3 kmh 29.55 in1000.7 mb 0.00 in0.0 mm 0.00 in0.0 mm 0.42 in10.7 mm
08:33 AM 49.2°F9.6°C 53.6°F12.0°C 91% Calm Calm -- 29.55 in1000.7 mb 0.00 in0.0 mm 0.00 in0.0 mm 0.42 in10.7 mm
08:36 AM 49.2°F9.6°C 53.6°F12.0°C 91% Calm Calm -- 29.55 in1000.7 mb 0.00 in0.0 mm 0.00 in0.0 mm 0.42 in10.7 mm
08:39 AM 49.1°F9.5°C 53.6°F12.0°C 91% Calm Calm -- 29.55 in1000.7 mb 0.00 in0.0 mm 0.00 in0.0 mm 0.42 in10.7 mm
08:42 AM 49.0°F9.4°C 53.6°F12.0°C 91% Calm Calm -- 29.55 in1000.7 mb 0.00 in0.0 mm 0.00 in0.0 mm 0.42 in10.7 mm
08:45 AM 48.8°F9.3°C 53.5°F11.9°C 91% Calm Calm -- 29.56 in1001.0 mb 0.00 in0.0 mm 0.00 in0.0 mm 0.42 in10.7 mm
08:48 AM 48.8°F9.3°C 53.0°F11.7°C 90% Calm Calm -- 29.57 in1001.4 mb 0.00 in0.0 mm 0.00 in0.0 mm 0.42 in10.7 mm
08:51 AM 48.8°F9.3°C 53.2°F11.8°C 91% Calm Calm -- 29.56 in1001.0 mb 0.00 in0.0 mm 0.00 in0.0 mm 0.42 in10.7 mm
08:54 AM 48.8°F9.3°C 53.3°F11.8°C 91% Calm Calm -- 29.56 in1001.0 mb 0.00 in0.0 mm 0.00 in0.0 mm 0.42 in10.7 mm
08:57 AM 48.8°F9.3°C 52.9°F11.6°C 89% 0.4 mph NNE0.6 kmh NNE 0.4 mph0.6 kmh 29.56 in1001.0 mb 0.00 in0.0 mm 0.00 in0.0 mm 0.42 in10.7 mm
09:00 AM 48.5°F9.2°C 53.0°F11.7°C 91% Calm Calm -- 29.56 in1001.0 mb 0.00 in0.0 mm 0.00 in0.0 mm 0.42 in10.7 mm
09:03 AM 48.2°F9.0°C 53.0°F11.7°C 90% Calm Calm -- 29.57 in1001.4 mb 0.00 in0.0 mm 0.00 in0.0 mm 0.42 in10.7 mm
09:06 AM 48.0°F8.9°C 52.9°F11.6°C 91% Calm Calm -- 29.57 in1001.4 mb 0.00 in0.0 mm 0.00 in0.0 mm 0.42 in10.7 mm
09:09 AM 47.9°F8.8°C 52.9°F11.6°C 90% Calm Calm -- 29.57 in1001.4 mb 0.00 in0.0 mm 0.00 in0.0 mm 0.42 in10.7 mm
09:12 AM 48.0°F8.9°C 52.9°F11.6°C 90% Calm Calm -- 29.58 in1001.7 mb 0.00 in0.0 mm 0.00 in0.0 mm 0.42 in10.7 mm
09:15 AM 48.2°F9.0°C 52.8°F11.6°C 90% Calm Calm -- 29.58 in1001.7 mb 0.00 in0.0 mm 0.00 in0.0 mm 0.42 in10.7 mm
09:18 AM 48.3°F9.1°C 52.6°F11.4°C 90% Calm Calm -- 29.58 in1001.7 mb 0.00 in0.0 mm 0.00 in0.0 mm 0.42 in10.7 mm
09:21 AM 47.5°F8.6°C 52.7°F11.5°C 90% Calm Calm -- 29.58 in1001.7 mb 0.00 in0.0 mm 0.00 in0.0 mm 0.42 in10.7 mm
09:24 AM 48.0°F8.9°C 52.6°F11.4°C 90% Calm Calm -- 29.58 in1001.7 mb 0.00 in0.0 mm 0.00 in0.0 mm 0.42 in10.7 mm
09:27 AM 48.0°F8.9°C 52.5°F11.4°C 90% Calm Calm -- 29.58 in1001.7 mb 0.00 in0.0 mm 0.00 in0.0 mm 0.42 in10.7 mm
09:30 AM 48.0°F8.9°C 52.7°F11.5°C 90% Calm Calm -- 29.58 in1001.7 mb 0.00 in0.0 mm 0.00 in0.0 mm 0.42 in10.7 mm
09:33 AM 48.5°F9.2°C 52.9°F11.6°C 91% Calm Calm -- 29.58 in1001.7 mb 0.00 in0.0 mm 0.00 in0.0 mm 0.42 in10.7 mm
09:36 AM 49.1°F9.5°C 53.0°F11.7°C 91% 0.4 mph NNW0.6 kmh NNW 0.4 mph0.6 kmh 29.58 in1001.7 mb 0.00 in0.0 mm 0.00 in0.0 mm 0.42 in10.7 mm
09:39 AM 49.8°F9.9°C 53.2°F11.8°C 91% Calm Calm -- 29.58 in1001.7 mb 0.00 in0.0 mm 0.00 in0.0 mm 0.42 in10.7 mm
09:42 AM 49.9°F9.9°C 53.2°F11.8°C 91% 0.8 mph NNW1.3 kmh NNW 0.8 mph1.3 kmh 29.58 in1001.7 mb 0.00 in0.0 mm 0.00 in0.0 mm 0.42 in10.7 mm
09:45 AM 49.8°F9.9°C 53.2°F11.8°C 91% 2.4 mph NNW3.9 kmh NNW 2.4 mph3.9 kmh 29.58 in1001.7 mb 0.00 in0.0 mm 0.00 in0.0 mm 0.42 in10.7 mm
09:48 AM 49.9°F9.9°C 53.4°F11.9°C 91% 0.8 mph W1.3 kmh W 0.8 mph1.3 kmh 29.58 in1001.7 mb 0.00 in0.0 mm 0.00 in0.0 mm 0.42 in10.7 mm
09:51 AM 49.9°F9.9°C 53.3°F11.8°C 91% Calm Calm -- 29.58 in1001.7 mb 0.00 in0.0 mm 0.00 in0.0 mm 0.42 in10.7 mm
09:54 AM 49.8°F9.9°C 53.2°F11.8°C 90% 2.8 mph W4.5 kmh W 2.8 mph4.5 kmh 29.59 in1002.0 mb 0.00 in0.0 mm 0.00 in0.0 mm 0.42 in10.7 mm
09:57 AM 49.8°F9.9°C 53.2°F11.8°C 91% Calm Calm -- 29.58 in1001.7 mb 0.00 in0.0 mm 0.00 in0.0 mm 0.42 in10.7 mm
10:00 AM 49.7°F9.8°C 53.2°F11.8°C 91% 1.9 mph W3.1 kmh W 1.9 mph3.1 kmh 29.58 in1001.7 mb 0.00 in0.0 mm 0.00 in0.0 mm 0.42 in10.7 mm
10:03 AM 49.8°F9.9°C 53.1°F11.7°C 91% 1.5 mph WSW2.4 kmh WSW 1.6 mph2.6 kmh 29.58 in1001.7 mb 0.00 in0.0 mm 0.00 in0.0 mm 0.42 in10.7 mm
10:06 AM 49.7°F9.8°C 53.4°F11.9°C 91% 2.0 mph W3.2 kmh W 2.0 mph3.2 kmh 29.58 in1001.7 mb 0.00 in0.0 mm 0.00 in0.0 mm 0.42 in10.7 mm
10:09 AM 49.6°F9.8°C 53.1°F11.7°C 90% Calm Calm -- 29.58 in1001.7 mb 0.00 in0.0 mm 0.00 in0.0 mm 0.42 in10.7 mm
10:12 AM 49.6°F9.8°C 53.5°F11.9°C 90% 0.4 mph NNW0.6 kmh NNW 0.4 mph0.6 kmh 29.58 in1001.7 mb 0.00 in0.0 mm 0.00 in0.0 mm 0.42 in10.7 mm
10:15 AM 49.6°F9.8°C 53.3°F11.8°C 91% 1.2 mph NW1.9 kmh NW 1.2 mph1.9 kmh 29.58 in1001.7 mb 0.00 in0.0 mm 0.00 in0.0 mm 0.42 in10.7 mm
10:18 AM 49.9°F9.9°C 53.0°F11.7°C 90% 1.6 mph 2.6 kmh 1.6 mph2.6 kmh 29.59 in1002.0 mb 0.00 in0.0 mm 0.00 in0.0 mm 0.42 in10.7 mm
10:21 AM 49.8°F9.9°C 53.3°F11.8°C 90% 0.8 mph NNW1.3 kmh NNW 0.8 mph1.3 kmh 29.58 in1001.7 mb 0.00 in0.0 mm 0.00 in0.0 mm 0.42 in10.7 mm
10:24 AM 50.0°F10.0°C 53.4°F11.9°C 91% 1.2 mph NNW1.9 kmh NNW 1.2 mph1.9 kmh 29.58 in1001.7 mb 0.00 in0.0 mm 0.00 in0.0 mm 0.42 in10.7 mm
10:27 AM 50.2°F10.1°C 53.2°F11.8°C 91% 1.2 mph NNW1.9 kmh NNW 1.2 mph1.9 kmh 29.58 in1001.7 mb 0.00 in0.0 mm 0.00 in0.0 mm 0.42 in10.7 mm
10:30 AM 50.2°F10.1°C 53.2°F11.8°C 91% 1.6 mph NNW2.6 kmh NNW 1.6 mph2.6 kmh 29.59 in1002.0 mb 0.00 in0.0 mm 0.00 in0.0 mm 0.42 in10.7 mm
10:33 AM 50.3°F10.2°C 53.4°F11.9°C 91% 2.4 mph W3.9 kmh W 2.4 mph3.9 kmh 29.58 in1001.7 mb 0.00 in0.0 mm 0.00 in0.0 mm 0.42 in10.7 mm
10:36 AM 50.6°F10.3°C 53.6°F12.0°C 91% 4.4 mph W7.1 kmh W 4.5 mph7.2 kmh 29.59 in1002.0 mb 0.00 in0.0 mm 0.00 in0.0 mm 0.42 in10.7 mm
10:39 AM 50.5°F10.3°C 53.4°F11.9°C 91% 3.6 mph WSW5.8 kmh WSW 3.7 mph6.0 kmh 29.58 in1001.7 mb 0.00 in0.0 mm 0.00 in0.0 mm 0.42 in10.7 mm
10:42 AM 50.5°F10.3°C 53.7°F12.1°C 91% 1.2 mph WNW1.9 kmh WNW 1.2 mph1.9 kmh 29.59 in1002.0 mb 0.00 in0.0 mm 0.00 in0.0 mm 0.42 in10.7 mm
10:45 AM 50.5°F10.3°C 53.8°F12.1°C 91% 2.4 mph NW3.9 kmh NW 2.4 mph3.9 kmh 29.58 in1001.7 mb 0.00 in0.0 mm 0.00 in0.0 mm 0.42 in10.7 mm
10:48 AM 50.5°F10.3°C 53.8°F12.1°C 91% 1.2 mph NW1.9 kmh NW 1.2 mph1.9 kmh 29.59 in1002.0 mb 0.00 in0.0 mm 0.00 in0.0 mm 0.42 in10.7 mm
10:51 AM 50.5°F10.3°C 53.7°F12.1°C 90% 0.8 mph NNW1.3 kmh NNW 0.8 mph1.3 kmh 29.58 in1001.7 mb 0.00 in0.0 mm 0.00 in0.0 mm 0.42 in10.7 mm
10:54 AM 50.6°F10.3°C 53.7°F12.1°C 90% Calm Calm -- 29.58 in1001.7 mb 0.00 in0.0 mm 0.00 in0.0 mm 0.42 in10.7 mm
10:57 AM 50.5°F10.3°C 53.8°F12.1°C 91% 0.8 mph SW1.3 kmh SW 0.8 mph1.3 kmh 29.58 in1001.7 mb 0.00 in0.0 mm 0.00 in0.0 mm 0.42 in10.7 mm
11:00 AM 50.5°F10.3°C 53.8°F12.1°C 91% 2.8 mph WSW4.5 kmh WSW 2.9 mph4.7 kmh 29.58 in1001.7 mb 0.00 in0.0 mm 0.00 in0.0 mm 0.42 in10.7 mm
11:03 AM 50.2°F10.1°C 53.8°F12.1°C 91% 3.6 mph WNW5.8 kmh WNW 3.6 mph5.8 kmh 29.58 in1001.7 mb 0.00 in0.0 mm 0.00 in0.0 mm 0.42 in10.7 mm
11:06 AM 50.2°F10.1°C 53.4°F11.9°C 89% 4.0 mph SW6.4 kmh SW 4.1 mph6.6 kmh 29.58 in1001.7 mb 0.00 in0.0 mm 0.00 in0.0 mm 0.42 in10.7 mm
11:09 AM 50.3°F10.2°C 53.8°F12.1°C 91% 2.3 mph NNW3.7 kmh NNW 2.3 mph3.7 kmh 29.58 in1001.7 mb 0.00 in0.0 mm 0.00 in0.0 mm 0.42 in10.7 mm
11:12 AM 50.6°F10.3°C 53.9°F12.2°C 91% 2.4 mph SSW3.9 kmh SSW 2.4 mph3.9 kmh 29.58 in1001.7 mb 0.00 in0.0 mm 0.00 in0.0 mm 0.44 in11.2 mm
11:15 AM 50.9°F10.5°C 53.9°F12.2°C 91% 1.6 mph WSW2.6 kmh WSW 1.6 mph2.6 kmh 29.58 in1001.7 mb 0.00 in0.0 mm 0.00 in0.0 mm 0.44 in11.2 mm
11:18 AM 51.0°F10.6°C 54.2°F12.3°C 91% 4.8 mph NW7.7 kmh NW 4.8 mph7.7 kmh 29.57 in1001.4 mb 0.00 in0.0 mm 0.00 in0.0 mm 0.44 in11.2 mm
11:21 AM 51.0°F10.6°C 54.2°F12.3°C 91% 2.4 mph NNW3.9 kmh NNW 2.4 mph3.9 kmh 29.57 in1001.4 mb 0.00 in0.0 mm 0.00 in0.0 mm 0.44 in11.2 mm
11:24 AM 51.1°F10.6°C 54.0°F12.2°C 90% 4.0 mph NNW6.4 kmh NNW 4.1 mph6.6 kmh 29.57 in1001.4 mb 0.00 in0.0 mm 0.00 in0.0 mm 0.44 in11.2 mm
11:27 AM 51.5°F10.8°C 54.5°F12.5°C 92% 4.4 mph W7.1 kmh W 4.5 mph7.2 kmh 29.56 in1001.0 mb 0.00 in0.0 mm 0.00 in0.0 mm 0.44 in11.2 mm
11:30 AM 51.1°F10.6°C 54.4°F12.4°C 92% 2.4 mph WSW3.9 kmh WSW 2.4 mph3.9 kmh 29.56 in1001.0 mb 0.00 in0.0 mm 0.00 in0.0 mm 0.44 in11.2 mm
11:33 AM 51.0°F10.6°C 54.4°F12.4°C 91% 4.0 mph SW6.4 kmh SW 4.0 mph6.4 kmh 29.56 in1001.0 mb 0.00 in0.0 mm 0.00 in0.0 mm 0.44 in11.2 mm
11:36 AM 51.0°F10.6°C 54.4°F12.4°C 91% 3.6 mph WNW5.8 kmh WNW 3.7 mph6.0 kmh 29.56 in1001.0 mb 0.00 in0.0 mm 0.00 in0.0 mm 0.44 in11.2 mm
11:39 AM 51.0°F10.6°C 54.4°F12.4°C 91% 3.2 mph W5.1 kmh W 3.3 mph5.3 kmh 29.56 in1001.0 mb 0.00 in0.0 mm 0.00 in0.0 mm 0.44 in11.2 mm
11:42 AM 51.1°F10.6°C 54.3°F12.4°C 91% 1.6 mph W2.6 kmh W 1.6 mph2.6 kmh 29.56 in1001.0 mb 0.00 in0.0 mm 0.00 in0.0 mm 0.44 in11.2 mm
11:45 AM 50.9°F10.5°C 54.2°F12.3°C 91% 5.3 mph NNW8.5 kmh NNW 5.4 mph8.7 kmh 29.56 in1001.0 mb 0.00 in0.0 mm 0.00 in0.0 mm 0.44 in11.2 mm
11:48 AM 51.1°F10.6°C 54.4°F12.4°C 91% 4.4 mph NNW7.1 kmh NNW 4.4 mph7.1 kmh 29.56 in1001.0 mb 0.00 in0.0 mm 0.00 in0.0 mm 0.44 in11.2 mm
11:51 AM 51.2°F10.7°C 54.4°F12.4°C 91% 2.8 mph W4.5 kmh W 2.8 mph4.5 kmh 29.56 in1001.0 mb 0.00 in0.0 mm 0.00 in0.0 mm 0.44 in11.2 mm
11:54 AM 51.8°F11.0°C 54.6°F12.6°C 92% 4.9 mph W7.9 kmh W 4.9 mph7.9 kmh 29.55 in1000.7 mb 0.00 in0.0 mm 0.00 in0.0 mm 0.44 in11.2 mm
11:57 AM 51.5°F10.8°C 54.7°F12.6°C 92% 6.3 mph W10.1 kmh W 6.4 mph10.3 kmh 29.55 in1000.7 mb 0.00 in0.0 mm 0.00 in0.0 mm 0.44 in11.2 mm
12:00 PM 51.2°F10.7°C 54.7°F12.6°C 92% 6.0 mph W9.7 kmh W 6.0 mph9.7 kmh 29.56 in1001.0 mb 0.00 in0.0 mm 0.00 in0.0 mm 0.44 in11.2 mm
12:03 PM 51.2°F10.7°C 54.1°F12.3°C 90% 2.0 mph NNW3.2 kmh NNW 2.0 mph3.2 kmh 29.55 in1000.7 mb 0.00 in0.0 mm 0.00 in0.0 mm 0.44 in11.2 mm
12:06 PM 51.4°F10.8°C 54.4°F12.4°C 91% 5.6 mph W9.0 kmh W 5.7 mph9.2 kmh 29.55 in1000.7 mb 0.00 in0.0 mm 0.00 in0.0 mm 0.44 in11.2 mm
12:09 PM 51.5°F10.8°C 54.2°F12.3°C 90% 2.4 mph NW3.9 kmh NW 2.4 mph3.9 kmh 29.55 in1000.7 mb 0.00 in0.0 mm 0.00 in0.0 mm 0.44 in11.2 mm
12:12 PM 51.6°F10.9°C 54.7°F12.6°C 91% 4.8 mph NNW7.7 kmh NNW 4.9 mph7.9 kmh 29.55 in1000.7 mb 0.00 in0.0 mm 0.00 in0.0 mm 0.44 in11.2 mm
12:15 PM 51.5°F10.8°C 54.7°F12.6°C 91% 3.6 mph NNW5.8 kmh NNW 3.6 mph5.8 kmh 29.55 in1000.7 mb 0.00 in0.0 mm 0.00 in0.0 mm 0.44 in11.2 mm
12:18 PM 51.4°F10.8°C 54.9°F12.7°C 91% 2.4 mph 3.9 kmh 2.4 mph3.9 kmh 29.55 in1000.7 mb 0.00 in0.0 mm 0.00 in0.0 mm 0.44 in11.2 mm
12:21 PM 51.4°F10.8°C 54.7°F12.6°C 91% 1.2 mph NW1.9 kmh NW 1.2 mph1.9 kmh 29.55 in1000.7 mb 0.00 in0.0 mm 0.00 in0.0 mm 0.44 in11.2 mm
12:24 PM 51.5°F10.8°C 54.7°F12.6°C 91% 2.0 mph W3.2 kmh W 2.0 mph3.2 kmh 29.55 in1000.7 mb 0.00 in0.0 mm 0.00 in0.0 mm 0.44 in11.2 mm
12:27 PM 51.5°F10.8°C 54.7°F12.6°C 91% 4.0 mph W6.4 kmh W 4.0 mph6.4 kmh 29.55 in1000.7 mb 0.00 in0.0 mm 0.00 in0.0 mm 0.44 in11.2 mm
12:30 PM 51.5°F10.8°C 54.7°F12.6°C 91% 1.6 mph NW2.6 kmh NW 1.6 mph2.6 kmh 29.55 in1000.7 mb 0.00 in0.0 mm 0.00 in0.0 mm 0.44 in11.2 mm
12:33 PM 51.6°F10.9°C 54.8°F12.7°C 91% 2.8 mph WSW4.5 kmh WSW 2.8 mph4.5 kmh 29.55 in1000.7 mb 0.00 in0.0 mm 0.00 in0.0 mm 0.44 in11.2 mm
12:36 PM 51.7°F10.9°C 54.9°F12.7°C 91% 1.2 mph WNW1.9 kmh WNW 1.2 mph1.9 kmh 29.55 in1000.7 mb 0.00 in0.0 mm 0.00 in0.0 mm 0.44 in11.2 mm
12:39 PM 51.6°F10.9°C 54.8°F12.7°C 91% 3.2 mph WNW5.1 kmh WNW 3.3 mph5.3 kmh 29.55 in1000.7 mb 0.00 in0.0 mm 0.00 in0.0 mm 0.44 in11.2 mm
12:42 PM 51.6°F10.9°C 54.7°F12.6°C 91% 3.6 mph W5.8 kmh W 3.6 mph5.8 kmh 29.55 in1000.7 mb 0.00 in0.0 mm 0.00 in0.0 mm 0.44 in11.2 mm
12:45 PM 51.5°F10.8°C 54.7°F12.6°C 91% 6.3 mph W10.1 kmh W 6.4 mph10.3 kmh 29.55 in1000.7 mb 0.00 in0.0 mm 0.00 in0.0 mm 0.44 in11.2 mm
12:48 PM 51.4°F10.8°C 54.7°F12.6°C 91% 6.1 mph NW9.8 kmh NW 6.1 mph9.8 kmh 29.55 in1000.7 mb 0.00 in0.0 mm 0.00 in0.0 mm 0.46 in11.7 mm
12:51 PM 51.1°F10.6°C 54.8°F12.7°C 91% 7.7 mph W12.4 kmh W 7.7 mph12.4 kmh 29.55 in1000.7 mb 0.00 in0.0 mm 0.00 in0.0 mm 0.46 in11.7 mm
12:54 PM 51.1°F10.6°C 55.0°F12.8°C 91% 5.3 mph W8.5 kmh W 5.3 mph8.5 kmh 29.55 in1000.7 mb 0.00 in0.0 mm 0.00 in0.0 mm 0.48 in12.2 mm
12:57 PM 51.0°F10.6°C 54.8°F12.7°C 91% 6.0 mph W9.7 kmh W 6.1 mph9.8 kmh 29.54 in1000.3 mb 0.00 in0.0 mm 0.00 in0.0 mm 0.48 in12.2 mm
01:00 PM 51.1°F10.6°C 54.5°F12.5°C 91% 3.2 mph NNW5.1 kmh NNW 3.3 mph5.3 kmh 29.55 in1000.7 mb 0.00 in0.0 mm 0.00 in0.0 mm 0.48 in12.2 mm
01:03 PM 50.9°F10.5°C 54.3°F12.4°C 90% 5.6 mph WNW9.0 kmh WNW 5.7 mph9.2 kmh 29.55 in1000.7 mb 0.00 in0.0 mm 0.00 in0.0 mm 0.50 in12.7 mm
01:06 PM 50.8°F10.4°C 54.0°F12.2°C 90% 7.3 mph NW11.7 kmh NW 7.3 mph11.7 kmh 29.55 in1000.7 mb 0.00 in0.0 mm 0.00 in0.0 mm 0.50 in12.7 mm
01:09 PM 50.8°F10.4°C 54.0°F12.2°C 90% 7.6 mph NW12.2 kmh NW 7.6 mph12.2 kmh 29.55 in1000.7 mb 0.00 in0.0 mm 0.00 in0.0 mm 0.50 in12.7 mm
01:12 PM 50.6°F10.3°C 53.9°F12.2°C 90% 8.5 mph W13.7 kmh W 8.5 mph13.7 kmh 29.55 in1000.7 mb 0.00 in0.0 mm 0.00 in0.0 mm 0.52 in13.2 mm
01:15 PM 50.5°F10.3°C 54.0°F12.2°C 90% 3.6 mph W5.8 kmh W 3.7 mph6.0 kmh 29.54 in1000.3 mb 0.00 in0.0 mm 0.00 in0.0 mm 0.54 in13.7 mm
01:18 PM 50.5°F10.3°C 53.8°F12.1°C 90% 3.2 mph WSW5.1 kmh WSW 3.3 mph5.3 kmh 29.53 in1000.0 mb 0.00 in0.0 mm 0.00 in0.0 mm 0.54 in13.7 mm
01:21 PM 50.6°F10.3°C 53.9°F12.2°C 90% 2.4 mph SW3.9 kmh SW 2.4 mph3.9 kmh 29.54 in1000.3 mb 0.00 in0.0 mm 0.00 in0.0 mm 0.54 in13.7 mm
01:24 PM 50.6°F10.3°C 53.8°F12.1°C 90% 7.6 mph SW12.2 kmh SW 7.6 mph12.2 kmh 29.53 in1000.0 mb 0.00 in0.0 mm 0.00 in0.0 mm 0.54 in13.7 mm
01:27 PM 50.6°F10.3°C 53.7°F12.1°C 89% 4.0 mph WSW6.4 kmh WSW 4.1 mph6.6 kmh 29.53 in1000.0 mb 0.00 in0.0 mm 0.00 in0.0 mm 0.54 in13.7 mm
01:30 PM 50.5°F10.3°C 54.0°F12.2°C 90% 6.4 mph W10.3 kmh W 6.4 mph10.3 kmh 29.53 in1000.0 mb 0.00 in0.0 mm 0.00 in0.0 mm 0.54 in13.7 mm
01:33 PM 50.7°F10.4°C 53.7°F12.1°C 89% 2.4 mph NW3.9 kmh NW 2.4 mph3.9 kmh 29.54 in1000.3 mb 0.00 in0.0 mm 0.00 in0.0 mm 0.56 in14.2 mm
01:36 PM 50.7°F10.4°C 53.8°F12.1°C 89% 2.0 mph NW3.2 kmh NW 2.0 mph3.2 kmh 29.54 in1000.3 mb 0.00 in0.0 mm 0.00 in0.0 mm 0.56 in14.2 mm
01:39 PM 50.6°F10.3°C 53.8°F12.1°C 89% 1.2 mph NNW1.9 kmh NNW 1.2 mph1.9 kmh 29.54 in1000.3 mb 0.00 in0.0 mm 0.00 in0.0 mm 0.56 in14.2 mm
01:42 PM 50.6°F10.3°C 53.6°F12.0°C 89% 2.8 mph NW4.5 kmh NW 2.8 mph4.5 kmh 29.53 in1000.0 mb 0.00 in0.0 mm 0.00 in0.0 mm 0.56 in14.2 mm
01:45 PM 50.5°F10.3°C 53.8°F12.1°C 90% 2.8 mph WSW4.5 kmh WSW 2.8 mph4.5 kmh 29.53 in1000.0 mb 0.00 in0.0 mm 0.00 in0.0 mm 0.58 in14.7 mm
01:48 PM 50.3°F10.2°C 53.6°F12.0°C 89% 2.0 mph NNW3.2 kmh NNW 2.0 mph3.2 kmh 29.53 in1000.0 mb 0.00 in0.0 mm 0.00 in0.0 mm 0.58 in14.7 mm
01:51 PM 50.3°F10.2°C 54.0°F12.2°C 90% 4.8 mph W7.7 kmh W 4.9 mph7.9 kmh 29.54 in1000.3 mb 0.00 in0.0 mm 0.00 in0.0 mm 0.58 in14.7 mm
01:54 PM 50.3°F10.2°C 53.7°F12.1°C 89% 1.2 mph SW1.9 kmh SW 1.2 mph1.9 kmh 29.54 in1000.3 mb 0.00 in0.0 mm 0.00 in0.0 mm 0.60 in15.2 mm
01:57 PM 50.2°F10.1°C 53.7°F12.1°C 89% 2.0 mph W3.2 kmh W 2.0 mph3.2 kmh 29.54 in1000.3 mb 0.00 in0.0 mm 0.00 in0.0 mm 0.60 in15.2 mm
02:00 PM 50.1°F10.1°C 53.9°F12.2°C 89% 3.2 mph NNW5.1 kmh NNW 3.3 mph5.3 kmh 29.53 in1000.0 mb 0.00 in0.0 mm 0.00 in0.0 mm 0.60 in15.2 mm
02:03 PM 50.0°F10.0°C 53.8°F12.1°C 90% 3.6 mph SW5.8 kmh SW 3.7 mph6.0 kmh 29.53 in1000.0 mb 0.00 in0.0 mm 0.00 in0.0 mm 0.60 in15.2 mm
02:06 PM 50.0°F10.0°C 53.8°F12.1°C 90% 3.2 mph NNW5.1 kmh NNW 3.3 mph5.3 kmh 29.53 in1000.0 mb 0.00 in0.0 mm 0.00 in0.0 mm 0.60 in15.2 mm
02:09 PM 50.2°F10.1°C 53.5°F11.9°C 89% 1.6 mph NW2.6 kmh NW 1.6 mph2.6 kmh 29.53 in1000.0 mb 0.00 in0.0 mm 0.00 in0.0 mm 0.60 in15.2 mm
02:12 PM 50.3°F10.2°C 53.4°F11.9°C 89% 2.0 mph W3.2 kmh W 2.0 mph3.2 kmh 29.54 in1000.3 mb 0.00 in0.0 mm 0.00 in0.0 mm 0.60 in15.2 mm
02:15 PM 50.3°F10.2°C 53.9°F12.2°C 90% 1.2 mph WNW1.9 kmh WNW 1.2 mph1.9 kmh 29.53 in1000.0 mb 0.00 in0.0 mm 0.00 in0.0 mm 0.60 in15.2 mm
02:18 PM 50.3°F10.2°C 53.9°F12.2°C 90% 2.0 mph W3.2 kmh W 2.0 mph3.2 kmh 29.53 in1000.0 mb 0.00 in0.0 mm 0.00 in0.0 mm 0.60 in15.2 mm
02:21 PM 50.2°F10.1°C 53.8°F12.1°C 90% 2.8 mph W4.5 kmh W 2.9 mph4.7 kmh 29.53 in1000.0 mb 0.00 in0.0 mm 0.00 in0.0 mm 0.60 in15.2 mm
02:24 PM 50.1°F10.1°C 53.8°F12.1°C 90% 0.8 mph W1.3 kmh W 0.8 mph1.3 kmh 29.53 in1000.0 mb 0.00 in0.0 mm 0.00 in0.0 mm 0.62 in15.7 mm
02:27 PM 50.0°F10.0°C 53.5°F11.9°C 89% 4.8 mph W7.7 kmh W 4.9 mph7.9 kmh 29.54 in1000.3 mb 0.00 in0.0 mm 0.00 in0.0 mm 0.62 in15.7 mm
02:30 PM 50.0°F10.0°C 53.7°F12.1°C 90% 4.8 mph W7.7 kmh W 4.8 mph7.7 kmh 29.53 in1000.0 mb 0.00 in0.0 mm 0.00 in0.0 mm 0.62 in15.7 mm
02:33 PM 50.0°F10.0°C 53.5°F11.9°C 89% 2.0 mph W3.2 kmh W 2.0 mph3.2 kmh 29.53 in1000.0 mb 0.00 in0.0 mm 0.00 in0.0 mm 0.62 in15.7 mm
02:36 PM 49.9°F9.9°C 53.4°F11.9°C 89% 2.4 mph WNW3.9 kmh WNW 2.4 mph3.9 kmh 29.53 in1000.0 mb 0.00 in0.0 mm 0.00 in0.0 mm 0.62 in15.7 mm
02:39 PM 49.9°F9.9°C 53.6°F12.0°C 89% 2.0 mph W3.2 kmh W 2.0 mph3.2 kmh 29.53 in1000.0 mb 0.00 in0.0 mm 0.00 in0.0 mm 0.62 in15.7 mm
02:42 PM 49.8°F9.9°C 53.4°F11.9°C 89% 2.0 mph NNW3.2 kmh NNW 2.0 mph3.2 kmh 29.53 in1000.0 mb 0.00 in0.0 mm 0.00 in0.0 mm 0.62 in15.7 mm
02:45 PM 49.7°F9.8°C 53.4°F11.9°C 89% 0.4 mph NNW0.6 kmh NNW 0.4 mph0.6 kmh 29.53 in1000.0 mb 0.00 in0.0 mm 0.00 in0.0 mm 0.62 in15.7 mm
02:48 PM 49.6°F9.8°C 53.3°F11.8°C 89% 1.6 mph WNW2.6 kmh WNW 1.6 mph2.6 kmh 29.54 in1000.3 mb 0.00 in0.0 mm 0.00 in0.0 mm 0.62 in15.7 mm
02:51 PM 49.6°F9.8°C 53.5°F11.9°C 89% 1.2 mph NNW1.9 kmh NNW 1.2 mph1.9 kmh 29.53 in1000.0 mb 0.00 in0.0 mm 0.00 in0.0 mm 0.62 in15.7 mm
02:54 PM 49.3°F9.6°C 53.2°F11.8°C 88% 2.0 mph NW3.2 kmh NW 2.0 mph3.2 kmh 29.53 in1000.0 mb 0.00 in0.0 mm 0.00 in0.0 mm 0.62 in15.7 mm
02:57 PM 49.3°F9.6°C 53.1°F11.7°C 89% Calm Calm -- 29.53 in1000.0 mb 0.00 in0.0 mm 0.00 in0.0 mm 0.62 in15.7 mm
03:00 PM 49.2°F9.6°C 52.9°F11.6°C 88% 3.2 mph NW5.1 kmh NW 3.2 mph5.1 kmh 29.54 in1000.3 mb 0.00 in0.0 mm 0.00 in0.0 mm 0.62 in15.7 mm
03:03 PM 49.1°F9.5°C 52.7°F11.5°C 88% 4.0 mph NNW6.4 kmh NNW 4.0 mph6.4 kmh 29.54 in1000.3 mb 0.00 in0.0 mm 0.00 in0.0 mm 0.62 in15.7 mm
03:06 PM 49.1°F9.5°C 52.6°F11.4°C 88% 0.4 mph WNW0.6 kmh WNW 0.4 mph0.6 kmh 29.53 in1000.0 mb 0.00 in0.0 mm 0.00 in0.0 mm 0.62 in15.7 mm
03:09 PM 49.0°F9.4°C 52.5°F11.4°C 87% 1.2 mph W1.9 kmh W 1.2 mph1.9 kmh 29.53 in1000.0 mb 0.00 in0.0 mm 0.00 in0.0 mm 0.62 in15.7 mm
03:12 PM 49.0°F9.4°C 52.7°F11.5°C 88% Calm Calm -- 29.54 in1000.3 mb 0.00 in0.0 mm 0.00 in0.0 mm 0.62 in15.7 mm
03:15 PM 48.9°F9.4°C 52.5°F11.4°C 88% 1.2 mph WNW1.9 kmh WNW 1.2 mph1.9 kmh 29.54 in1000.3 mb 0.00 in0.0 mm 0.00 in0.0 mm 0.62 in15.7 mm
03:18 PM 48.9°F9.4°C 52.6°F11.4°C 88% Calm Calm -- 29.53 in1000.0 mb 0.00 in0.0 mm 0.00 in0.0 mm 0.62 in15.7 mm
03:21 PM 48.9°F9.4°C 52.5°F11.4°C 88% 1.6 mph NNW2.6 kmh NNW 1.6 mph2.6 kmh 29.54 in1000.3 mb 0.00 in0.0 mm 0.00 in0.0 mm 0.62 in15.7 mm
03:27 PM 48.8°F9.3°C 52.6°F11.4°C 88% 0.4 mph NW0.6 kmh NW 0.4 mph0.6 kmh 29.54 in1000.3 mb 0.00 in0.0 mm 0.00 in0.0 mm 0.62 in15.7 mm
03:30 PM 48.7°F9.3°C 52.5°F11.4°C 88% 3.9 mph W6.3 kmh W 3.9 mph6.3 kmh 29.55 in1000.7 mb 0.00 in0.0 mm 0.00 in0.0 mm 0.62 in15.7 mm
03:33 PM 48.8°F9.3°C 52.2°F11.2°C 88% 2.0 mph W3.2 kmh W 2.0 mph3.2 kmh 29.55 in1000.7 mb 0.00 in0.0 mm 0.00 in0.0 mm 0.62 in15.7 mm
03:36 PM 48.7°F9.3°C 52.4°F11.3°C 88% 0.4 mph NW0.6 kmh NW 0.4 mph0.6 kmh 29.55 in1000.7 mb 0.00 in0.0 mm 0.00 in0.0 mm 0.62 in15.7 mm
03:39 PM 48.8°F9.3°C 52.3°F11.3°C 88% 0.8 mph NW1.3 kmh NW 0.8 mph1.3 kmh 29.55 in1000.7 mb 0.00 in0.0 mm 0.00 in0.0 mm 0.62 in15.7 mm
03:42 PM 48.7°F9.3°C 52.4°F11.3°C 88% 0.4 mph NNW0.6 kmh NNW 0.4 mph0.6 kmh 29.54 in1000.3 mb 0.00 in0.0 mm 0.00 in0.0 mm 0.62 in15.7 mm
03:45 PM 48.8°F9.3°C 52.5°F11.4°C 88% 3.2 mph WNW5.1 kmh WNW 3.2 mph5.1 kmh 29.55 in1000.7 mb 0.00 in0.0 mm 0.00 in0.0 mm 0.62 in15.7 mm
03:48 PM 48.8°F9.3°C 52.2°F11.2°C 88% 2.4 mph NNW3.9 kmh NNW 2.4 mph3.9 kmh 29.54 in1000.3 mb 0.00 in0.0 mm 0.00 in0.0 mm 0.62 in15.7 mm
03:51 PM 48.8°F9.3°C 52.3°F11.3°C 88% 4.4 mph NW7.1 kmh NW 4.4 mph7.1 kmh 29.54 in1000.3 mb 0.00 in0.0 mm 0.00 in0.0 mm 0.62 in15.7 mm
03:54 PM 48.8°F9.3°C 52.1°F11.2°C 87% 2.4 mph WNW3.9 kmh WNW 2.5 mph4.0 kmh 29.53 in1000.0 mb 0.00 in0.0 mm 0.00 in0.0 mm 0.62 in15.7 mm
03:57 PM 48.8°F9.3°C 52.5°F11.4°C 88% 2.8 mph NW4.5 kmh NW 2.9 mph4.7 kmh 29.53 in1000.0 mb 0.00 in0.0 mm 0.00 in0.0 mm 0.62 in15.7 mm
04:00 PM 48.8°F9.3°C 51.8°F11.0°C 87% 2.8 mph NNW4.5 kmh NNW 2.8 mph4.5 kmh 29.54 in1000.3 mb 0.00 in0.0 mm 0.00 in0.0 mm 0.62 in15.7 mm
04:03 PM 48.8°F9.3°C 52.0°F11.1°C 87% 1.3 mph NW2.1 kmh NW 1.3 mph2.1 kmh 29.54 in1000.3 mb 0.00 in0.0 mm 0.00 in0.0 mm 0.62 in15.7 mm
04:06 PM 48.8°F9.3°C 52.8°F11.6°C 89% Calm Calm -- 29.53 in1000.0 mb 0.00 in0.0 mm 0.00 in0.0 mm 0.62 in15.7 mm
04:09 PM 48.7°F9.3°C 52.8°F11.6°C 89% Calm Calm -- 29.54 in1000.3 mb 0.00 in0.0 mm 0.00 in0.0 mm 0.64 in16.3 mm
04:12 PM 48.7°F9.3°C 52.6°F11.4°C 88% 0.8 mph 1.3 kmh 0.8 mph1.3 kmh 29.53 in1000.0 mb 0.00 in0.0 mm 0.00 in0.0 mm 0.64 in16.3 mm
04:15 PM 48.7°F9.3°C 52.6°F11.4°C 88% 0.8 mph NNW1.3 kmh NNW 0.8 mph1.3 kmh 29.54 in1000.3 mb 0.00 in0.0 mm 0.00 in0.0 mm 0.64 in16.3 mm
04:18 PM 48.7°F9.3°C 52.6°F11.4°C 88% Calm Calm -- 29.54 in1000.3 mb 0.00 in0.0 mm 0.00 in0.0 mm 0.64 in16.3 mm
04:21 PM 48.7°F9.3°C 52.3°F11.3°C 88% Calm Calm -- 29.53 in1000.0 mb 0.00 in0.0 mm 0.00 in0.0 mm 0.64 in16.3 mm
04:24 PM 48.8°F9.3°C 52.4°F11.3°C 89% 2.1 mph NNW3.4 kmh NNW 2.1 mph3.4 kmh 29.53 in1000.0 mb 0.00 in0.0 mm 0.00 in0.0 mm 0.64 in16.3 mm
04:27 PM 48.8°F9.3°C 52.7°F11.5°C 89% 3.0 mph WNW4.8 kmh WNW 3.0 mph4.8 kmh 29.54 in1000.3 mb 0.00 in0.0 mm 0.00 in0.0 mm 0.64 in16.3 mm
04:30 PM 48.9°F9.4°C 52.7°F11.5°C 89% 0.4 mph NNW0.6 kmh NNW 0.4 mph0.6 kmh 29.53 in1000.0 mb 0.00 in0.0 mm 0.00 in0.0 mm 0.64 in16.3 mm
04:33 PM 49.0°F9.4°C 52.5°F11.4°C 89% 1.7 mph W2.7 kmh W 1.7 mph2.7 kmh 29.54 in1000.3 mb 0.00 in0.0 mm 0.00 in0.0 mm 0.64 in16.3 mm
04:36 PM 49.0°F9.4°C 52.5°F11.4°C 88% 0.4 mph NW0.6 kmh NW 0.4 mph0.6 kmh 29.53 in1000.0 mb 0.00 in0.0 mm 0.00 in0.0 mm 0.64 in16.3 mm
04:39 PM 49.0°F9.4°C 52.7°F11.5°C 89% 5.1 mph NW8.2 kmh NW 5.1 mph8.2 kmh 29.53 in1000.0 mb 0.00 in0.0 mm 0.00 in0.0 mm 0.64 in16.3 mm
04:42 PM 48.9°F9.4°C 52.7°F11.5°C 89% 1.3 mph SW2.1 kmh SW 1.3 mph2.1 kmh 29.53 in1000.0 mb 0.00 in0.0 mm 0.00 in0.0 mm 0.64 in16.3 mm
04:45 PM 48.9°F9.4°C 52.6°F11.4°C 89% 6.9 mph W11.1 kmh W 6.9 mph11.1 kmh 29.54 in1000.3 mb 0.00 in0.0 mm 0.00 in0.0 mm 0.64 in16.3 mm
04:48 PM 48.9°F9.4°C 52.4°F11.3°C 88% 5.6 mph W9.0 kmh W 5.6 mph9.0 kmh 29.53 in1000.0 mb 0.00 in0.0 mm 0.00 in0.0 mm 0.64 in16.3 mm
04:51 PM 48.9°F9.4°C 52.3°F11.3°C 89% 0.9 mph WNW1.4 kmh WNW 0.9 mph1.4 kmh 29.54 in1000.3 mb 0.00 in0.0 mm 0.00 in0.0 mm 0.64 in16.3 mm
04:54 PM 48.9°F9.4°C 52.4°F11.3°C 89% 9.0 mph WNW14.5 kmh WNW 9.0 mph14.5 kmh 29.54 in1000.3 mb 0.00 in0.0 mm 0.00 in0.0 mm 0.64 in16.3 mm
04:57 PM 48.9°F9.4°C 52.7°F11.5°C 90% 4.7 mph W7.6 kmh W 4.7 mph7.6 kmh 29.55 in1000.7 mb 0.00 in0.0 mm 0.00 in0.0 mm 0.64 in16.3 mm
05:00 PM 48.9°F9.4°C 52.5°F11.4°C 89% 1.3 mph NNW2.1 kmh NNW 1.3 mph2.1 kmh 29.54 in1000.3 mb 0.00 in0.0 mm 0.00 in0.0 mm 0.64 in16.3 mm
05:03 PM 48.8°F9.3°C 52.5°F11.4°C 89% 4.7 mph WNW7.6 kmh WNW 4.7 mph7.6 kmh 29.54 in1000.3 mb 0.00 in0.0 mm 0.00 in0.0 mm 0.64 in16.3 mm
05:06 PM 48.8°F9.3°C 52.4°F11.3°C 89% 3.0 mph NNW4.8 kmh NNW 3.0 mph4.8 kmh 29.54 in1000.3 mb 0.00 in0.0 mm 0.00 in0.0 mm 0.64 in16.3 mm
05:09 PM 48.8°F9.3°C 52.2°F11.2°C 89% 1.3 mph WSW2.1 kmh WSW 1.3 mph2.1 kmh 29.55 in1000.7 mb 0.00 in0.0 mm 0.00 in0.0 mm 0.64 in16.3 mm
05:12 PM 48.8°F9.3°C 52.5°F11.4°C 89% 3.0 mph SSW4.8 kmh SSW 3.0 mph4.8 kmh 29.55 in1000.7 mb 0.00 in0.0 mm 0.00 in0.0 mm 0.64 in16.3 mm
05:15 PM 48.7°F9.3°C 52.3°F11.3°C 89% 5.2 mph W8.4 kmh W 5.2 mph8.4 kmh 29.55 in1000.7 mb 0.00 in0.0 mm 0.00 in0.0 mm 0.64 in16.3 mm
05:21 PM 48.7°F9.3°C 52.2°F11.2°C 89% 3.0 mph NNW4.8 kmh NNW 3.0 mph4.8 kmh 29.55 in1000.7 mb 0.00 in0.0 mm 0.00 in0.0 mm 0.64 in16.3 mm
05:24 PM 48.5°F9.2°C 52.2°F11.2°C 89% 1.3 mph W2.1 kmh W 1.3 mph2.1 kmh 29.55 in1000.7 mb 0.00 in0.0 mm 0.00 in0.0 mm 0.64 in16.3 mm
05:27 PM 48.5°F9.2°C 52.4°F11.3°C 89% 0.8 mph WSW1.3 kmh WSW 0.8 mph1.3 kmh 29.55 in1000.7 mb 0.00 in0.0 mm 0.00 in0.0 mm 0.64 in16.3 mm
05:30 PM 48.5°F9.2°C 51.8°F11.0°C 88% 3.4 mph WSW5.5 kmh WSW 3.4 mph5.5 kmh 29.55 in1000.7 mb 0.00 in0.0 mm 0.00 in0.0 mm 0.64 in16.3 mm
05:33 PM 48.4°F9.1°C 52.4°F11.3°C 89% 2.1 mph WSW3.4 kmh WSW 2.1 mph3.4 kmh 29.55 in1000.7 mb 0.00 in0.0 mm 0.00 in0.0 mm 0.64 in16.3 mm
05:36 PM 48.4°F9.1°C 52.3°F11.3°C 89% 1.7 mph SW2.7 kmh SW 1.7 mph2.7 kmh 29.55 in1000.7 mb 0.00 in0.0 mm 0.00 in0.0 mm 0.64 in16.3 mm
05:39 PM 48.4°F9.1°C 51.9°F11.1°C 88% 1.7 mph W2.7 kmh W 1.7 mph2.7 kmh 29.55 in1000.7 mb 0.00 in0.0 mm 0.00 in0.0 mm 0.64 in16.3 mm
05:42 PM 48.3°F9.1°C 52.0°F11.1°C 88% 0.4 mph WSW0.6 kmh WSW 0.4 mph0.6 kmh 29.55 in1000.7 mb 0.00 in0.0 mm 0.00 in0.0 mm 0.64 in16.3 mm
05:45 PM 48.3°F9.1°C 51.6°F10.9°C 87% 5.1 mph WSW8.2 kmh WSW 5.1 mph8.2 kmh 29.55 in1000.7 mb 0.00 in0.0 mm 0.00 in0.0 mm 0.64 in16.3 mm
05:48 PM 48.3°F9.1°C 52.0°F11.1°C 89% 3.9 mph SW6.3 kmh SW 3.9 mph6.3 kmh 29.54 in1000.3 mb 0.00 in0.0 mm 0.00 in0.0 mm 0.64 in16.3 mm
05:51 PM 48.2°F9.0°C 51.9°F11.1°C 89% 1.7 mph WSW2.7 kmh WSW 1.7 mph2.7 kmh 29.54 in1000.3 mb 0.00 in0.0 mm 0.00 in0.0 mm 0.64 in16.3 mm
05:54 PM 48.2°F9.0°C 52.1°F11.2°C 89% 2.6 mph NW4.2 kmh NW 2.6 mph4.2 kmh 29.55 in1000.7 mb 0.00 in0.0 mm 0.00 in0.0 mm 0.64 in16.3 mm
05:57 PM 48.2°F9.0°C 51.9°F11.1°C 88% 2.6 mph NNW4.2 kmh NNW 2.6 mph4.2 kmh 29.54 in1000.3 mb 0.00 in0.0 mm 0.00 in0.0 mm 0.64 in16.3 mm
06:00 PM 48.2°F9.0°C 52.0°F11.1°C 88% 1.7 mph NNW2.7 kmh NNW 1.7 mph2.7 kmh 29.54 in1000.3 mb 0.00 in0.0 mm 0.00 in0.0 mm 0.64 in16.3 mm
06:03 PM 48.1°F8.9°C 51.8°F11.0°C 88% 2.1 mph SW3.4 kmh SW 2.1 mph3.4 kmh 29.54 in1000.3 mb 0.00 in0.0 mm 0.00 in0.0 mm 0.64 in16.3 mm
06:06 PM 48.1°F8.9°C 51.9°F11.1°C 89% 1.7 mph WSW2.7 kmh WSW 1.7 mph2.7 kmh 29.54 in1000.3 mb 0.00 in0.0 mm 0.00 in0.0 mm 0.64 in16.3 mm
06:09 PM 48.1°F8.9°C 51.9°F11.1°C 89% 3.0 mph W4.8 kmh W 3.0 mph4.8 kmh 29.54 in1000.3 mb 0.00 in0.0 mm 0.00 in0.0 mm 0.64 in16.3 mm
06:12 PM 48.0°F8.9°C 51.8°F11.0°C 88% 1.3 mph NNW2.1 kmh NNW 1.3 mph2.1 kmh 29.55 in1000.7 mb 0.00 in0.0 mm 0.00 in0.0 mm 0.64 in16.3 mm
06:15 PM 48.0°F8.9°C 51.7°F10.9°C 88% 0.4 mph SW0.6 kmh SW 0.4 mph0.6 kmh 29.55 in1000.7 mb 0.00 in0.0 mm 0.00 in0.0 mm 0.64 in16.3 mm
06:18 PM 47.9°F8.8°C 51.8°F11.0°C 89% 0.8 mph SW1.3 kmh SW 0.8 mph1.3 kmh 29.54 in1000.3 mb 0.00 in0.0 mm 0.00 in0.0 mm 0.64 in16.3 mm
06:21 PM 47.9°F8.8°C 51.7°F10.9°C 88% Calm Calm -- 29.54 in1000.3 mb 0.00 in0.0 mm 0.00 in0.0 mm 0.64 in16.3 mm
06:24 PM 47.9°F8.8°C 51.8°F11.0°C 89% Calm Calm -- 29.54 in1000.3 mb 0.00 in0.0 mm 0.00 in0.0 mm 0.64 in16.3 mm
06:27 PM 47.8°F8.8°C 51.7°F10.9°C 88% 0.4 mph SW0.6 kmh SW 0.4 mph0.6 kmh 29.54 in1000.3 mb 0.00 in0.0 mm 0.00 in0.0 mm 0.64 in16.3 mm
06:30 PM 47.9°F8.8°C 51.8°F11.0°C 88% Calm Calm -- 29.54 in1000.3 mb 0.00 in0.0 mm 0.00 in0.0 mm 0.64 in16.3 mm
06:33 PM 47.8°F8.8°C 51.5°F10.8°C 88% 2.1 mph WNW3.4 kmh WNW 2.1 mph3.4 kmh 29.53 in1000.0 mb 0.00 in0.0 mm 0.00 in0.0 mm 0.64 in16.3 mm
06:36 PM 47.8°F8.8°C 51.8°F11.0°C 89% 1.7 mph SW2.7 kmh SW 1.7 mph2.7 kmh 29.53 in1000.0 mb 0.00 in0.0 mm 0.00 in0.0 mm 0.64 in16.3 mm
06:39 PM 47.8°F8.8°C 51.3°F10.7°C 88% 1.3 mph WSW2.1 kmh WSW 1.3 mph2.1 kmh 29.53 in1000.0 mb 0.00 in0.0 mm 0.00 in0.0 mm 0.64 in16.3 mm
06:42 PM 47.6°F8.7°C 51.5°F10.8°C 88% 0.9 mph NNW1.4 kmh NNW 0.9 mph1.4 kmh 29.53 in1000.0 mb 0.00 in0.0 mm 0.00 in0.0 mm 0.64 in16.3 mm
06:45 PM 47.6°F8.7°C 51.7°F10.9°C 89% 0.9 mph WSW1.4 kmh WSW 0.9 mph1.4 kmh 29.53 in1000.0 mb 0.00 in0.0 mm 0.00 in0.0 mm 0.64 in16.3 mm
06:48 PM 47.6°F8.7°C 51.6°F10.9°C 88% Calm Calm -- 29.54 in1000.3 mb 0.00 in0.0 mm 0.00 in0.0 mm 0.64 in16.3 mm
06:51 PM 47.6°F8.7°C 51.1°F10.6°C 88% Calm Calm -- 29.53 in1000.0 mb 0.00 in0.0 mm 0.00 in0.0 mm 0.64 in16.3 mm
06:54 PM 47.6°F8.7°C 51.5°F10.8°C 89% 1.3 mph SW2.1 kmh SW 1.3 mph2.1 kmh 29.53 in1000.0 mb 0.00 in0.0 mm 0.00 in0.0 mm 0.64 in16.3 mm
06:57 PM 47.6°F8.7°C 51.5°F10.8°C 89% 1.3 mph SW2.1 kmh SW 1.3 mph2.1 kmh 29.53 in1000.0 mb 0.00 in0.0 mm 0.00 in0.0 mm 0.64 in16.3 mm
07:00 PM 47.6°F8.7°C 51.6°F10.9°C 89% Calm Calm -- 29.53 in1000.0 mb 0.00 in0.0 mm 0.00 in0.0 mm 0.64 in16.3 mm
07:03 PM 47.5°F8.6°C 51.4°F10.8°C 89% Calm Calm -- 29.53 in1000.0 mb 0.00 in0.0 mm 0.00 in0.0 mm 0.64 in16.3 mm
07:06 PM 47.5°F8.6°C 51.5°F10.8°C 89% 0.8 mph WSW1.3 kmh WSW 0.8 mph1.3 kmh 29.53 in1000.0 mb 0.00 in0.0 mm 0.00 in0.0 mm 0.64 in16.3 mm
07:09 PM 47.5°F8.6°C 51.5°F10.8°C 89% Calm Calm -- 29.53 in1000.0 mb 0.00 in0.0 mm 0.00 in0.0 mm 0.64 in16.3 mm
07:12 PM 47.5°F8.6°C 51.5°F10.8°C 89% Calm Calm -- 29.53 in1000.0 mb 0.00 in0.0 mm 0.00 in0.0 mm 0.64 in16.3 mm
07:15 PM 47.5°F8.6°C 51.6°F10.9°C 89% 2.2 mph SW3.5 kmh SW 2.2 mph3.5 kmh 29.53 in1000.0 mb 0.00 in0.0 mm 0.00 in0.0 mm 0.64 in16.3 mm
07:18 PM 47.5°F8.6°C 51.4°F10.8°C 89% 0.4 mph NNW0.6 kmh NNW 0.4 mph0.6 kmh 29.53 in1000.0 mb 0.00 in0.0 mm 0.00 in0.0 mm 0.64 in16.3 mm
07:21 PM 47.5°F8.6°C 51.4°F10.8°C 89% 1.7 mph W2.7 kmh W 1.7 mph2.7 kmh 29.53 in1000.0 mb 0.00 in0.0 mm 0.00 in0.0 mm 0.64 in16.3 mm
07:24 PM 47.5°F8.6°C 51.4°F10.8°C 89% Calm Calm -- 29.53 in1000.0 mb 0.00 in0.0 mm 0.00 in0.0 mm 0.64 in16.3 mm
07:27 PM 47.5°F8.6°C 51.0°F10.6°C 88% Calm Calm -- 29.53 in1000.0 mb 0.00 in0.0 mm 0.00 in0.0 mm 0.64 in16.3 mm
07:30 PM 47.5°F8.6°C 51.4°F10.8°C 89% Calm Calm -- 29.53 in1000.0 mb 0.00 in0.0 mm 0.00 in0.0 mm 0.64 in16.3 mm
07:33 PM 47.5°F8.6°C 51.3°F10.7°C 89% Calm Calm -- 29.53 in1000.0 mb 0.00 in0.0 mm 0.00 in0.0 mm 0.64 in16.3 mm
07:36 PM 47.5°F8.6°C 51.3°F10.7°C 89% 0.4 mph WSW0.6 kmh WSW 0.4 mph0.6 kmh 29.52 in999.7 mb 0.00 in0.0 mm 0.00 in0.0 mm 0.64 in16.3 mm
07:39 PM 47.5°F8.6°C 51.1°F10.6°C 89% Calm Calm -- 29.52 in999.7 mb 0.00 in0.0 mm 0.00 in0.0 mm 0.64 in16.3 mm
07:42 PM 47.5°F8.6°C 51.2°F10.7°C 89% 1.3 mph NNW2.1 kmh NNW 1.3 mph2.1 kmh 29.51 in999.3 mb 0.00 in0.0 mm 0.00 in0.0 mm 0.64 in16.3 mm
07:45 PM 47.5°F8.6°C 51.5°F10.8°C 89% 2.0 mph W3.2 kmh W 2.0 mph3.2 kmh 29.51 in999.3 mb 0.00 in0.0 mm 0.00 in0.0 mm 0.64 in16.3 mm
07:48 PM 47.4°F8.6°C 51.2°F10.7°C 89% 4.3 mph NNW6.9 kmh NNW 4.3 mph6.9 kmh 29.51 in999.3 mb 0.00 in0.0 mm 0.00 in0.0 mm 0.64 in16.3 mm
07:51 PM 47.4°F8.6°C 51.4°F10.8°C 89% 1.3 mph SW2.1 kmh SW 1.3 mph2.1 kmh 29.51 in999.3 mb 0.00 in0.0 mm 0.00 in0.0 mm 0.64 in16.3 mm
07:54 PM 47.4°F8.6°C 51.3°F10.7°C 89% Calm Calm -- 29.51 in999.3 mb 0.00 in0.0 mm 0.00 in0.0 mm 0.64 in16.3 mm
07:57 PM 47.4°F8.6°C 51.4°F10.8°C 90% Calm Calm -- 29.51 in999.3 mb 0.00 in0.0 mm 0.00 in0.0 mm 0.64 in16.3 mm
08:00 PM 47.4°F8.6°C 51.4°F10.8°C 90% Calm Calm -- 29.51 in999.3 mb 0.00 in0.0 mm 0.00 in0.0 mm 0.64 in16.3 mm
08:03 PM 47.4°F8.6°C 51.3°F10.7°C 89% 2.6 mph NNW4.2 kmh NNW 2.6 mph4.2 kmh 29.51 in999.3 mb 0.00 in0.0 mm 0.00 in0.0 mm 0.64 in16.3 mm
08:06 PM 47.4°F8.6°C 51.4°F10.8°C 89% Calm Calm -- 29.51 in999.3 mb 0.00 in0.0 mm 0.00 in0.0 mm 0.64 in16.3 mm
08:09 PM 47.3°F8.5°C 51.3°F10.7°C 89% Calm Calm -- 29.51 in999.3 mb 0.00 in0.0 mm 0.00 in0.0 mm 0.64 in16.3 mm
08:12 PM 47.4°F8.6°C 51.3°F10.7°C 89% Calm Calm -- 29.51 in999.3 mb 0.00 in0.0 mm 0.00 in0.0 mm 0.64 in16.3 mm
08:15 PM 47.4°F8.6°C 51.6°F10.9°C 89% Calm Calm -- 29.51 in999.3 mb 0.00 in0.0 mm 0.00 in0.0 mm 0.64 in16.3 mm
08:18 PM 47.4°F8.6°C 51.7°F10.9°C 90% Calm Calm -- 29.51 in999.3 mb 0.00 in0.0 mm 0.00 in0.0 mm 0.64 in16.3 mm
08:21 PM 47.4°F8.6°C 51.1°F10.6°C 89% 1.3 mph SW2.1 kmh SW 1.3 mph2.1 kmh 29.51 in999.3 mb 0.00 in0.0 mm 0.00 in0.0 mm 0.64 in16.3 mm
08:24 PM 47.4°F8.6°C 51.2°F10.7°C 89% 1.3 mph NNW2.1 kmh NNW 1.3 mph2.1 kmh 29.51 in999.3 mb 0.00 in0.0 mm 0.00 in0.0 mm 0.64 in16.3 mm
08:27 PM 47.4°F8.6°C 51.4°F10.8°C 90% Calm Calm -- 29.51 in999.3 mb 0.00 in0.0 mm 0.00 in0.0 mm 0.64 in16.3 mm
08:30 PM 47.4°F8.6°C 51.5°F10.8°C 90% 0.9 mph W1.4 kmh W 0.9 mph1.4 kmh 29.51 in999.3 mb 0.00 in0.0 mm 0.00 in0.0 mm 0.64 in16.3 mm
08:33 PM 47.4°F8.6°C 51.1°F10.6°C 88% 3.0 mph W4.8 kmh W 3.0 mph4.8 kmh 29.51 in999.3 mb 0.00 in0.0 mm 0.00 in0.0 mm 0.64 in16.3 mm
08:36 PM 47.4°F8.6°C 51.4°F10.8°C 90% 1.3 mph WSW2.1 kmh WSW 1.3 mph2.1 kmh 29.51 in999.3 mb 0.00 in0.0 mm 0.00 in0.0 mm 0.64 in16.3 mm
08:39 PM 47.4°F8.6°C 51.5°F10.8°C 90% 1.3 mph SW2.1 kmh SW 1.3 mph2.1 kmh 29.51 in999.3 mb 0.00 in0.0 mm 0.00 in0.0 mm 0.64 in16.3 mm
08:42 PM 47.4°F8.6°C 51.4°F10.8°C 90% Calm Calm -- 29.51 in999.3 mb 0.00 in0.0 mm 0.00 in0.0 mm 0.64 in16.3 mm
08:45 PM 47.4°F8.6°C 51.3°F10.7°C 90% 0.4 mph 0.6 kmh 0.4 mph0.6 kmh 29.51 in999.3 mb 0.00 in0.0 mm 0.00 in0.0 mm 0.64 in16.3 mm
08:48 PM 47.5°F8.6°C 51.1°F10.6°C 89% 2.5 mph 4.0 kmh 2.5 mph4.0 kmh 29.51 in999.3 mb 0.00 in0.0 mm 0.00 in0.0 mm 0.64 in16.3 mm
08:51 PM 47.4°F8.6°C 51.5°F10.8°C 90% Calm Calm -- 29.51 in999.3 mb 0.00 in0.0 mm 0.00 in0.0 mm 0.64 in16.3 mm
08:54 PM 47.4°F8.6°C 51.3°F10.7°C 90% 0.4 mph WNW0.6 kmh WNW 0.4 mph0.6 kmh 29.51 in999.3 mb 0.00 in0.0 mm 0.00 in0.0 mm 0.64 in16.3 mm
08:57 PM 47.4°F8.6°C 51.3°F10.7°C 90% Calm Calm -- 29.51 in999.3 mb 0.00 in0.0 mm 0.00 in0.0 mm 0.64 in16.3 mm
09:00 PM 47.4°F8.6°C 51.3°F10.7°C 90% Calm Calm -- 29.51 in999.3 mb 0.00 in0.0 mm 0.00 in0.0 mm 0.64 in16.3 mm
09:03 PM 47.4°F8.6°C 51.4°F10.8°C 90% Calm Calm -- 29.51 in999.3 mb 0.00 in0.0 mm 0.00 in0.0 mm 0.64 in16.3 mm
09:06 PM 47.4°F8.6°C 51.4°F10.8°C 90% Calm Calm -- 29.51 in999.3 mb 0.00 in0.0 mm 0.00 in0.0 mm 0.64 in16.3 mm
09:09 PM 47.4°F8.6°C 51.3°F10.7°C 90% Calm Calm -- 29.51 in999.3 mb 0.00 in0.0 mm 0.00 in0.0 mm 0.64 in16.3 mm
09:12 PM 47.4°F8.6°C 51.2°F10.7°C 89% Calm Calm -- 29.51 in999.3 mb 0.00 in0.0 mm 0.00 in0.0 mm 0.64 in16.3 mm
09:15 PM 47.4°F8.6°C 51.1°F10.6°C 89% Calm Calm -- 29.52 in999.7 mb 0.00 in0.0 mm 0.00 in0.0 mm 0.64 in16.3 mm
09:18 PM 47.4°F8.6°C 51.2°F10.7°C 90% 1.3 mph WNW2.1 kmh WNW 1.3 mph2.1 kmh 29.52 in999.7 mb 0.00 in0.0 mm 0.00 in0.0 mm 0.64 in16.3 mm
09:21 PM 47.4°F8.6°C 51.0°F10.6°C 89% 0.8 mph NNW1.3 kmh NNW 0.8 mph1.3 kmh 29.52 in999.7 mb 0.00 in0.0 mm 0.00 in0.0 mm 0.64 in16.3 mm
09:24 PM 47.4°F8.6°C 51.4°F10.8°C 90% Calm Calm -- 29.53 in1000.0 mb 0.00 in0.0 mm 0.00 in0.0 mm 0.64 in16.3 mm
09:27 PM 47.4°F8.6°C 51.4°F10.8°C 90% Calm Calm -- 29.52 in999.7 mb 0.00 in0.0 mm 0.00 in0.0 mm 0.64 in16.3 mm
09:30 PM 47.5°F8.6°C 51.3°F10.7°C 90% 5.1 mph W8.2 kmh W 5.1 mph8.2 kmh 29.53 in1000.0 mb 0.00 in0.0 mm 0.00 in0.0 mm 0.64 in16.3 mm
09:33 PM 47.5°F8.6°C 51.2°F10.7°C 89% 1.3 mph WSW2.1 kmh WSW 1.3 mph2.1 kmh 29.53 in1000.0 mb 0.00 in0.0 mm 0.00 in0.0 mm 0.64 in16.3 mm
09:36 PM 47.4°F8.6°C 51.6°F10.9°C 90% 3.0 mph WSW4.8 kmh WSW 3.0 mph4.8 kmh 29.53 in1000.0 mb 0.00 in0.0 mm 0.00 in0.0 mm 0.64 in16.3 mm
09:39 PM 47.5°F8.6°C 51.3°F10.7°C 90% 2.6 mph W4.2 kmh W 2.6 mph4.2 kmh 29.53 in1000.0 mb 0.00 in0.0 mm 0.00 in0.0 mm 0.64 in16.3 mm
09:42 PM 47.5°F8.6°C 51.4°F10.8°C 90% 2.1 mph W3.4 kmh W 2.1 mph3.4 kmh 29.52 in999.7 mb 0.00 in0.0 mm 0.00 in0.0 mm 0.64 in16.3 mm
09:45 PM 47.4°F8.6°C 51.4°F10.8°C 90% 3.4 mph WSW5.5 kmh WSW 3.4 mph5.5 kmh 29.52 in999.7 mb 0.00 in0.0 mm 0.00 in0.0 mm 0.64 in16.3 mm
09:48 PM 47.4°F8.6°C 51.2°F10.7°C 90% 2.1 mph W3.4 kmh W 2.1 mph3.4 kmh 29.52 in999.7 mb 0.00 in0.0 mm 0.00 in0.0 mm 0.64 in16.3 mm
09:51 PM 47.4°F8.6°C 51.4°F10.8°C 90% Calm Calm -- 29.53 in1000.0 mb 0.00 in0.0 mm 0.00 in0.0 mm 0.64 in16.3 mm
09:54 PM 47.4°F8.6°C 51.3°F10.7°C 90% 1.3 mph NNW2.1 kmh NNW 1.3 mph2.1 kmh 29.53 in1000.0 mb 0.00 in0.0 mm 0.00 in0.0 mm 0.64 in16.3 mm
09:57 PM 47.3°F8.5°C 51.3°F10.7°C 90% 1.3 mph SW2.1 kmh SW 1.3 mph2.1 kmh 29.52 in999.7 mb 0.00 in0.0 mm 0.00 in0.0 mm 0.64 in16.3 mm
10:00 PM 47.4°F8.6°C 51.4°F10.8°C 90% 2.1 mph W3.4 kmh W 2.1 mph3.4 kmh 29.53 in1000.0 mb 0.00 in0.0 mm 0.00 in0.0 mm 0.64 in16.3 mm
10:03 PM 47.3°F8.5°C 51.2°F10.7°C 90% Calm Calm -- 29.53 in1000.0 mb 0.00 in0.0 mm 0.00 in0.0 mm 0.64 in16.3 mm
10:06 PM 47.3°F8.5°C 51.4°F10.8°C 90% 0.8 mph WSW1.3 kmh WSW 0.8 mph1.3 kmh 29.53 in1000.0 mb 0.00 in0.0 mm 0.00 in0.0 mm 0.64 in16.3 mm
10:09 PM 47.3°F8.5°C 51.5°F10.8°C 90% 0.8 mph SW1.3 kmh SW 0.8 mph1.3 kmh 29.53 in1000.0 mb 0.00 in0.0 mm 0.00 in0.0 mm 0.64 in16.3 mm
10:12 PM 47.3°F8.5°C 51.4°F10.8°C 90% 2.1 mph NNW3.4 kmh NNW 2.1 mph3.4 kmh 29.53 in1000.0 mb 0.00 in0.0 mm 0.00 in0.0 mm 0.64 in16.3 mm
10:15 PM 47.3°F8.5°C 51.3°F10.7°C 90% 0.4 mph WSW0.6 kmh WSW 0.4 mph0.6 kmh 29.53 in1000.0 mb 0.00 in0.0 mm 0.00 in0.0 mm 0.64 in16.3 mm
10:18 PM 47.3°F8.5°C 51.4°F10.8°C 90% Calm Calm -- 29.54 in1000.3 mb 0.00 in0.0 mm 0.00 in0.0 mm 0.64 in16.3 mm
10:21 PM 47.3°F8.5°C 51.3°F10.7°C 90% 0.4 mph WNW0.6 kmh WNW 0.4 mph0.6 kmh 29.53 in1000.0 mb 0.00 in0.0 mm 0.00 in0.0 mm 0.64 in16.3 mm
10:24 PM 47.3°F8.5°C 51.2°F10.7°C 90% 2.6 mph NNW4.2 kmh NNW 2.6 mph4.2 kmh 29.55 in1000.7 mb 0.00 in0.0 mm 0.00 in0.0 mm 0.64 in16.3 mm
10:27 PM 47.4°F8.6°C 51.4°F10.8°C 90% 1.3 mph NNW2.1 kmh NNW 1.3 mph2.1 kmh 29.54 in1000.3 mb 0.00 in0.0 mm 0.00 in0.0 mm 0.64 in16.3 mm
10:30 PM 47.4°F8.6°C 51.2°F10.7°C 90% 4.3 mph W6.9 kmh W 4.3 mph6.9 kmh 29.55 in1000.7 mb 0.00 in0.0 mm 0.00 in0.0 mm 0.64 in16.3 mm
10:33 PM 47.4°F8.6°C 51.5°F10.8°C 91% 1.7 mph W2.7 kmh W 1.7 mph2.7 kmh 29.55 in1000.7 mb 0.00 in0.0 mm 0.00 in0.0 mm 0.64 in16.3 mm
10:36 PM 47.4°F8.6°C 51.3°F10.7°C 90% 2.1 mph NNW3.4 kmh NNW 2.1 mph3.4 kmh 29.55 in1000.7 mb 0.00 in0.0 mm 0.00 in0.0 mm 0.64 in16.3 mm
10:39 PM 47.5°F8.6°C 50.9°F10.5°C 89% 7.2 mph WNW11.6 kmh WNW 7.2 mph11.6 kmh 29.55 in1000.7 mb 0.00 in0.0 mm 0.00 in0.0 mm 0.64 in16.3 mm
10:42 PM 47.5°F8.6°C 51.4°F10.8°C 90% 2.9 mph WSW4.7 kmh WSW 2.9 mph4.7 kmh 29.55 in1000.7 mb 0.00 in0.0 mm 0.00 in0.0 mm 0.64 in16.3 mm
10:45 PM 47.5°F8.6°C 51.4°F10.8°C 91% 2.1 mph NNW3.4 kmh NNW 2.1 mph3.4 kmh 29.55 in1000.7 mb 0.00 in0.0 mm 0.00 in0.0 mm 0.64 in16.3 mm
10:48 PM 47.5°F8.6°C 51.3°F10.7°C 90% 1.3 mph W2.1 kmh W 1.3 mph2.1 kmh 29.55 in1000.7 mb 0.00 in0.0 mm 0.00 in0.0 mm 0.64 in16.3 mm
10:51 PM 47.5°F8.6°C 51.6°F10.9°C 90% 1.3 mph NNW2.1 kmh NNW 1.3 mph2.1 kmh 29.55 in1000.7 mb 0.00 in0.0 mm 0.00 in0.0 mm 0.64 in16.3 mm
10:57 PM 47.5°F8.6°C 51.5°F10.8°C 90% 3.0 mph NNW4.8 kmh NNW 3.0 mph4.8 kmh 29.55 in1000.7 mb 0.00 in0.0 mm 0.00 in0.0 mm 0.64 in16.3 mm
11:00 PM 47.4°F8.6°C 51.4°F10.8°C 90% Calm Calm -- 29.55 in1000.7 mb 0.00 in0.0 mm 0.00 in0.0 mm 0.64 in16.3 mm
11:03 PM 47.5°F8.6°C 51.4°F10.8°C 90% Calm Calm -- 29.55 in1000.7 mb 0.00 in0.0 mm 0.00 in0.0 mm 0.64 in16.3 mm
11:06 PM 47.5°F8.6°C 51.3°F10.7°C 90% Calm Calm -- 29.55 in1000.7 mb 0.00 in0.0 mm 0.00 in0.0 mm 0.64 in16.3 mm
11:09 PM 47.5°F8.6°C 51.3°F10.7°C 90% 0.4 mph NW0.6 kmh NW 0.4 mph0.6 kmh 29.55 in1000.7 mb 0.00 in0.0 mm 0.00 in0.0 mm 0.64 in16.3 mm
11:12 PM 47.5°F8.6°C 51.4°F10.8°C 91% 0.9 mph WNW1.4 kmh WNW 0.9 mph1.4 kmh 29.55 in1000.7 mb 0.00 in0.0 mm 0.00 in0.0 mm 0.64 in16.3 mm
11:15 PM 47.4°F8.6°C 51.2°F10.7°C 90% 0.9 mph NNW1.4 kmh NNW 0.9 mph1.4 kmh 29.56 in1001.0 mb 0.00 in0.0 mm 0.00 in0.0 mm 0.64 in16.3 mm
11:18 PM 47.4°F8.6°C 51.5°F10.8°C 91% 2.6 mph W4.2 kmh W 2.6 mph4.2 kmh 29.56 in1001.0 mb 0.00 in0.0 mm 0.00 in0.0 mm 0.64 in16.3 mm
11:21 PM 47.4°F8.6°C 51.3°F10.7°C 91% 2.1 mph W3.4 kmh W 2.1 mph3.4 kmh 29.56 in1001.0 mb 0.00 in0.0 mm 0.00 in0.0 mm 0.64 in16.3 mm
11:24 PM 47.5°F8.6°C 51.1°F10.6°C 90% Calm Calm -- 29.56 in1001.0 mb 0.00 in0.0 mm 0.00 in0.0 mm 0.64 in16.3 mm
11:27 PM 47.5°F8.6°C 51.4°F10.8°C 91% 1.3 mph W2.1 kmh W 1.3 mph2.1 kmh 29.56 in1001.0 mb 0.00 in0.0 mm 0.00 in0.0 mm 0.64 in16.3 mm
11:30 PM 47.5°F8.6°C 51.4°F10.8°C 90% 0.4 mph NW0.6 kmh NW 0.4 mph0.6 kmh 29.57 in1001.4 mb 0.00 in0.0 mm 0.00 in0.0 mm 0.64 in16.3 mm
11:33 PM 47.5°F8.6°C 51.4°F10.8°C 90% 3.0 mph NNW4.8 kmh NNW 3.0 mph4.8 kmh 29.57 in1001.4 mb 0.00 in0.0 mm 0.00 in0.0 mm 0.64 in16.3 mm
11:36 PM 47.5°F8.6°C 51.1°F10.6°C 90% 2.5 mph W4.0 kmh W 2.5 mph4.0 kmh 29.58 in1001.7 mb 0.00 in0.0 mm 0.00 in0.0 mm 0.64 in16.3 mm
11:39 PM 47.5°F8.6°C 51.4°F10.8°C 90% 1.7 mph NNW2.7 kmh NNW 1.7 mph2.7 kmh 29.58 in1001.7 mb 0.00 in0.0 mm 0.00 in0.0 mm 0.64 in16.3 mm
11:42 PM 47.5°F8.6°C 51.4°F10.8°C 90% 0.9 mph SW1.4 kmh SW 0.9 mph1.4 kmh 29.58 in1001.7 mb 0.00 in0.0 mm 0.00 in0.0 mm 0.64 in16.3 mm
11:45 PM 47.5°F8.6°C 51.4°F10.8°C 91% 3.0 mph WSW4.8 kmh WSW 3.0 mph4.8 kmh 29.58 in1001.7 mb 0.00 in0.0 mm 0.00 in0.0 mm 0.64 in16.3 mm
11:48 PM 47.5°F8.6°C 51.2°F10.7°C 91% 2.5 mph W4.0 kmh W 2.5 mph4.0 kmh 29.58 in1001.7 mb 0.00 in0.0 mm 0.00 in0.0 mm 0.64 in16.3 mm
11:51 PM 47.5°F8.6°C 51.1°F10.6°C 90% 1.3 mph WNW2.1 kmh WNW 1.3 mph2.1 kmh 29.58 in1001.7 mb 0.00 in0.0 mm 0.00 in0.0 mm 0.64 in16.3 mm
11:54 PM 47.5°F8.6°C 51.3°F10.7°C 90% 2.6 mph WSW4.2 kmh WSW 2.6 mph4.2 kmh 29.58 in1001.7 mb 0.00 in0.0 mm 0.00 in0.0 mm 0.64 in16.3 mm
11:57 PM 47.5°F8.6°C 51.3°F10.7°C 91% 4.3 mph NNW6.9 kmh NNW 4.3 mph6.9 kmh 29.58 in1001.7 mb 0.00 in0.0 mm 0.00 in0.0 mm 0.64 in16.3 mm